Dirección General De Aeronáutica Civil

Dirección Meteorológica de Chile - Servicios Climáticos

Informe General de Control de Calidad de la Estación

Listado de niveles de control de calidad para algunos parámetros
Estación El Bosque Base Aérea (330027)
Fecha de Revisión de los datos :

Elementos

Registros Niveles de Control Total
Nivel 0 Nivel 1 Nivel 2 Nivel 3 Errores Porcentaje
01 Temperatura del Aire Seco 127.795 0 . 302 0.24 % 0 . 0 . 302 0.24 %
02 Temperatura de Rocío 121.891 1 0.00 % 0 . 0 . 0 . 1 0.00 %
03 Humedad Relativa del Aire 122.203 0 . 0 . 0 . 0 . 0 0.00 %
04 Temperatura Máxima PM 11.299 0 . 0 . 260 2.30 % 0 . 260 2.30 %
05 Temperatura Mínima AM 12.324 0 . 0 . 172 1.40 % 0 . 172 1.40 %
06 Viento a 10 m. de Altura 127.868 3 0.00 % 34 0.03 % 12 0.01 % 0 . 49 0.04 %
07 Agua Caida, Acumulada 6 Horas 36.141 0 . 74 0.20 % 0 . 0 . 74 0.20 %
08 Presión Atm. a Nivel de Estación (QFE) 114.351 0 . 0 . 0 . 0 . 0 0.00 %
09 Presión Atm. a Nivel Medio del Mar (QFF) 112.429 3 0.00 % 0 . 0 . 0 . 3 0.00 %
10 Presión Atm. Estándar OACI (QNH) 46.706 0 . 0 . 0 . 0 . 0 0.00 %
11 Tiempo Pasado Sinóptico 55.170 0 . 0 . 0 . 0 . 0 0.00 %
12 Tiempo Presente Sinóptico 69.719 0 . 8 0.01 % 0 . 0 . 8 0.01 %

Totales

957.896 . 0.0007 % . 0.0436 % . 0.0464 % . 0.0000 % 869 0.0907 %

Detalle de Errores Encontrados

Nivel Fecha del Dato Descripción Información Error Fecha Ingreso
0 1952-03-15 19:00:00 ff (Intensidad del Viento) debe ser numerico, entre 0 y 70 kt. 90 2014-08-21 13:35:00
0 1952-12-15 23:00:00 ff (Intensidad del Viento) debe ser numerico, entre 0 y 70 kt. 143 2014-09-08 19:53:00
0 1953-04-05 18:00:00 ff (Intensidad del Viento) debe ser numerico, entre 0 y 70 kt. 90 2013-09-10 18:30:00
0 1952-08-07 17:00:00 qff (Presión a nivel del Mar) debe ser numérico, entre 300 y 1100 103.2 2014-08-29 19:29:00
0 1952-12-28 21:00:00 qff (Presión a nivel del Mar) debe ser numérico, entre 300 y 1100 109.7 2014-09-09 17:47:00
0 1953-04-06 21:00:00 qff (Presión a nivel del Mar) debe ser numérico, entre 300 y 1100 112.4 2013-09-10 19:08:00
0 1982-01-06 16:00:00 Td (Temperatura Del Punto de Rocio) debe ser numérico, entre -50.0 y 50.0 -51.6
Errores del Nivel 7
Nivel Fecha del Dato Descripción Información Error Fecha Ingreso
1 1952-02-25 10:00:00 Viento calma fue mal ingresado. dd = 270 - ff = 0 2014-08-20 15:45:00
1 1952-05-14 12:00:00 Viento calma fue mal ingresado. dd = 180 - ff = 0 2014-08-25 19:22:00
1 1952-05-16 07:00:00 Viento calma fue mal ingresado. dd = 90 - ff = 0 2014-08-25 19:59:00
1 1952-05-16 08:00:00 Viento calma fue mal ingresado. dd = 0 - ff = 3 2014-08-25 19:59:00
1 1952-07-07 12:00:00 Viento calma fue mal ingresado. dd = 270 - ff = 0 2014-08-28 16:21:00
1 1952-07-07 13:00:00 Viento calma fue mal ingresado. dd = 0 - ff = 3 2014-08-28 16:21:00
1 1952-07-07 14:00:00 Viento calma fue mal ingresado. dd = 180 - ff = 0 2014-08-28 16:21:00
1 1952-08-07 07:00:00 Viento calma fue mal ingresado. dd = 140 - ff = 0 2014-08-29 19:28:00
1 1952-08-08 07:00:00 Viento calma fue mal ingresado. dd = 180 - ff = 0 2014-08-29 19:57:00
1 1952-08-08 09:00:00 Viento calma fue mal ingresado. dd = 0 - ff = 5 2014-08-29 19:57:00
1 1952-08-20 10:00:00 Viento calma fue mal ingresado. dd = 20 - ff = 0 2014-09-01 18:55:00
1 1952-09-24 09:00:00 Viento calma fue mal ingresado. dd = 0 - ff = 6 2014-09-03 14:30:00
1 1952-10-31 12:00:00 Viento calma fue mal ingresado. dd = 0 - ff = 2 2014-09-04 19:10:00
1 1952-11-24 12:00:00 Viento calma fue mal ingresado. dd = 180 - ff = 0 2014-09-05 19:31:00
1 1952-11-25 11:00:00 Viento calma fue mal ingresado. dd = 0 - ff = 2 2014-09-08 13:01:00
1 1952-12-12 14:00:00 Viento calma fue mal ingresado. dd = 220 - ff = 0 2014-09-08 19:18:00
1 1952-12-18 19:00:00 Viento calma fue mal ingresado. dd = 270 - ff = 0 2014-09-09 12:32:00
1 1952-12-24 16:00:00 Viento calma fue mal ingresado. dd = 0 - ff = 5 2014-09-09 14:34:00
1 1952-12-24 17:00:00 Viento calma fue mal ingresado. dd = 0 - ff = 6 2014-09-09 14:34:00
1 1953-01-02 13:00:00 Viento calma fue mal ingresado. dd = 0 - ff = 2 2013-09-02 13:39:00
1 1953-02-04 12:00:00 Viento calma fue mal ingresado. dd = 40 - ff = 0 2013-09-04 19:03:00
1 1953-02-06 11:00:00 Viento calma fue mal ingresado. dd = 0 - ff = 2 2013-09-04 19:58:00
1 1953-02-11 11:00:00 Viento calma fue mal ingresado. dd = 0 - ff = 4 2013-09-05 13:37:00
1 1953-02-25 13:00:00 Viento calma fue mal ingresado. dd = 0 - ff = 3 2013-09-05 20:25:00
1 1953-03-03 15:00:00 Viento calma fue mal ingresado. dd = 0 - ff = 2 2013-09-06 14:11:00
1 1953-03-05 14:00:00 Viento calma fue mal ingresado. dd = 0 - ff = 3 2013-09-06 14:56:00
1 1953-03-07 20:00:00 Viento calma fue mal ingresado. dd = 180 - ff = 0 2013-09-06 15:33:00
1 1953-03-25 17:00:00 Viento calma fue mal ingresado. dd = 270 - ff = 0 2013-09-09 20:12:00
1 1953-03-25 18:00:00 Viento calma fue mal ingresado. dd = 0 - ff = 6 2013-09-09 20:12:00
1 1953-03-25 19:00:00 Viento calma fue mal ingresado. dd = 220 - ff = 0 2013-09-09 20:12:00
1 1953-06-28 16:00:00 Viento calma fue mal ingresado. dd = 270 - ff = 0 2013-09-26 17:48:00
1 1953-07-19 14:00:00 Viento calma fue mal ingresado. dd = 0 - ff = 2 2013-10-14 15:53:00
1 1953-08-13 14:00:00 Viento calma fue mal ingresado. dd = 0 - ff = 2 2013-10-16 20:16:00
1 1953-09-11 16:00:00 Viento calma fue mal ingresado. dd = 270 - ff = 0 2013-10-22 12:22:00
1 1952-05-17 06:00:00 Ts debe ser mayor o igual a Td Ts=11.0 - Td=11.1 2014-08-25 20:11:00
1 1952-05-17 07:00:00 Ts debe ser mayor o igual a Td Ts=11.0 - Td=11.1 2014-08-25 20:11:00
1 1952-05-27 07:00:00 Ts debe ser mayor o igual a Td Ts=7.6 - Td=8.0 2014-08-26 14:07:00
1 1952-05-27 07:00:00 HR (Humedad Relativa) es igual a 100% y Ts <> Td 7.6 - 8.0 2014-08-26 14:07:00
1 1952-06-12 08:00:00 Ts debe ser mayor o igual a Td Ts=1.5 - Td=2.0 2014-08-26 21:25:00
1 1952-06-12 08:00:00 HR (Humedad Relativa) es igual a 100% y Ts <> Td 1.5 - 2.0 2014-08-26 21:25:00
1 1952-06-12 09:00:00 HR (Humedad Relativa) es igual a 100% y Ts <> Td 2.5 - 2.0 2014-08-26 21:25:00
1 1952-06-14 10:00:00 Ts debe ser mayor o igual a Td Ts=4.6 - Td=5.0 2014-08-27 13:46:00
1 1952-06-16 06:00:00 Ts debe ser mayor o igual a Td Ts=1.6 - Td=2.0 2014-08-27 14:28:00
1 1952-06-16 06:00:00 HR (Humedad Relativa) es igual a 100% y Ts <> Td 1.6 - 2.0 2014-08-27 14:28:00
1 1952-06-16 07:00:00 Ts debe ser mayor o igual a Td Ts=1.6 - Td=2.0 2014-08-27 14:28:00
1 1952-06-20 07:00:00 Ts debe ser mayor o igual a Td Ts=4.7 - Td=5.0 2014-08-27 15:46:00
1 1952-06-22 08:00:00 Ts debe ser mayor o igual a Td Ts=9.8 - Td=10.1 2014-08-27 16:11:00
1 1952-06-22 14:00:00 Ts debe ser mayor o igual a Td Ts=9.7 - Td=10.1 2014-08-27 16:11:00
1 1952-06-26 06:00:00 Ts debe ser mayor o igual a Td Ts=3.6 - Td=4.0 2014-08-27 18:22:00
1 1952-06-28 09:00:00 Ts debe ser mayor o igual a Td Ts=-0.8 - Td=-0.7 2014-08-27 19:33:00
1 1952-07-06 06:00:00 Ts debe ser mayor o igual a Td Ts=5.5 - Td=6.0 2014-08-28 16:10:00
1 1952-07-06 06:00:00 HR (Humedad Relativa) es igual a 100% y Ts <> Td 5.5 - 6.0 2014-08-28 16:10:00
1 1952-07-06 08:00:00 Ts debe ser mayor o igual a Td Ts=6.6 - Td=7.0 2014-08-28 16:10:00
1 1952-07-12 07:00:00 Ts debe ser mayor o igual a Td Ts=2.6 - Td=3.0 2014-08-28 18:33:00
1 1952-07-12 08:00:00 Ts debe ser mayor o igual a Td Ts=2.6 - Td=3.0 2014-08-28 18:33:00
1 1952-07-16 08:00:00 Ts debe ser mayor o igual a Td Ts=1.8 - Td=2.0 2014-08-28 19:38:00
1 1952-07-16 08:00:00 HR (Humedad Relativa) es igual a 100% y Ts <> Td 1.8 - 2.0 2014-08-28 19:38:00
1 1952-07-16 11:00:00 HR (Humedad Relativa) es igual a 100% y Ts <> Td 5.4 - 5.0 2014-08-28 19:38:00
1 1952-07-16 13:00:00 Ts debe ser mayor o igual a Td Ts=7.5 - Td=8.0 2014-08-28 19:38:00
1 1952-07-16 13:00:00 HR (Humedad Relativa) es igual a 100% y Ts <> Td 7.5 - 8.0 2014-08-28 19:38:00
1 1952-07-18 09:00:00 Ts debe ser mayor o igual a Td Ts=6.6 - Td=7.0 2014-08-28 20:16:00
1 1952-07-18 09:00:00 HR (Humedad Relativa) es igual a 100% y Ts <> Td 6.6 - 7.0 2014-08-28 20:16:00
1 1952-07-20 07:00:00 HR (Humedad Relativa) es igual a 100% y Ts <> Td 2.5 - 2.0 2014-08-28 20:51:00
1 1952-07-20 09:00:00 Ts debe ser mayor o igual a Td Ts=2.8 - Td=3.0 2014-08-28 20:51:00
1 1952-07-20 09:00:00 HR (Humedad Relativa) es igual a 100% y Ts <> Td 2.8 - 3.0 2014-08-28 20:51:00
1 1952-07-21 07:00:00 Ts debe ser mayor o igual a Td Ts=-1.3 - Td=-1.2 2014-08-28 20:58:00
1 1952-07-21 09:00:00 HR (Humedad Relativa) es igual a 100% y Ts <> Td -1.0 - -1.8 2014-08-28 20:58:00
1 1952-07-22 08:00:00 Ts debe ser mayor o igual a Td Ts=0.6 - Td=1.2 2014-08-28 21:08:00
1 1952-07-26 08:00:00 Ts debe ser mayor o igual a Td Ts=5.5 - Td=6.0 2014-08-29 14:12:00
1 1952-07-31 06:00:00 HR (Humedad Relativa) es igual a 100% y Ts <> Td 3.4 - 3.0 2014-08-29 15:53:00
1 1952-08-06 09:00:00 Ts debe ser mayor o igual a Td Ts=5.6 - Td=6.0 2014-08-29 19:19:00
1 1952-08-06 09:00:00 HR (Humedad Relativa) es igual a 100% y Ts <> Td 5.6 - 6.0 2014-08-29 19:19:00
1 1952-08-12 08:00:00 HR (Humedad Relativa) es igual a 100% y Ts <> Td 3.4 - 3.0 2014-09-01 14:30:00
1 1952-08-12 09:00:00 Ts debe ser mayor o igual a Td Ts=3.5 - Td=4.2 2014-09-01 14:30:00
1 1952-08-12 09:00:00 HR (Humedad Relativa) es igual a 100% y Ts <> Td 3.5 - 4.2 2014-09-01 14:30:00
1 1952-08-12 10:00:00 Ts debe ser mayor o igual a Td Ts=5.8 - Td=6.0 2014-09-01 14:30:00
1 1952-08-12 11:00:00 Ts debe ser mayor o igual a Td Ts=7.5 - Td=8.0 2014-09-01 14:30:00
1 1952-08-12 11:00:00 HR (Humedad Relativa) es igual a 100% y Ts <> Td 7.5 - 8.0 2014-09-01 14:30:00
1 1952-08-15 06:00:00 HR (Humedad Relativa) es igual a 100% y Ts <> Td 5.3 - 5.0 2014-09-01 15:17:00
1 1952-08-15 07:00:00 HR (Humedad Relativa) es igual a 100% y Ts <> Td 5.4 - 5.0 2014-09-01 15:17:00
1 1952-08-15 08:00:00 HR (Humedad Relativa) es igual a 100% y Ts <> Td 5.5 - 5.0 2014-09-01 15:17:00
1 1952-08-15 10:00:00 HR (Humedad Relativa) es igual a 100% y Ts <> Td 7.7 - 7.0 2014-09-01 15:17:00
1 1952-08-15 11:00:00 HR (Humedad Relativa) es igual a 100% y Ts <> Td 8.3 - 8.0 2014-09-01 15:17:00
1 1952-08-22 19:00:00 Ts debe ser mayor o igual a Td Ts=4.0 - Td=4.2 2014-09-01 19:23:00
1 1952-09-23 11:00:00 HR (Humedad Relativa) es igual a 100% y Ts <> Td 12.5 - 12.1 2014-09-02 21:19:00
1 1952-09-24 06:00:00 HR (Humedad Relativa) es igual a 100% y Ts <> Td 7.4 - 7.0 2014-09-03 14:30:00
1 1952-09-24 07:00:00 HR (Humedad Relativa) es igual a 100% y Ts <> Td 8.5 - 8.0 2014-09-03 14:30:00
1 1952-10-02 08:00:00 Ts debe ser mayor o igual a Td Ts=12.5 - Td=12.6 2014-09-03 18:43:00
1 1952-10-07 10:00:00 Ts debe ser mayor o igual a Td Ts=6.6 - Td=7.0 2014-09-03 20:17:00
1 1952-10-07 10:00:00 HR (Humedad Relativa) es igual a 100% y Ts <> Td 6.6 - 7.0 2014-09-03 20:17:00
1 1952-10-07 11:00:00 Ts debe ser mayor o igual a Td Ts=6.6 - Td=7.0 2014-09-03 20:17:00
1 1952-10-07 11:00:00 HR (Humedad Relativa) es igual a 100% y Ts <> Td 6.6 - 7.0 2014-09-03 20:17:00
1 1952-10-07 12:00:00 HR (Humedad Relativa) es igual a 100% y Ts <> Td 6.5 - 6.0 2014-09-03 20:17:00
1 1952-10-07 13:00:00 HR (Humedad Relativa) es igual a 100% y Ts <> Td 7.4 - 7.0 2014-09-03 20:17:00
1 1952-12-05 10:00:00 HR (Humedad Relativa) es igual a 100% y Ts <> Td 9.3 - 9.0 2014-09-08 16:09:00
1 1952-12-19 10:00:00 HR (Humedad Relativa) es igual a 100% y Ts <> Td 9.4 - 9.0 2014-09-09 13:19:00
1 1952-12-19 11:00:00 Ts debe ser mayor o igual a Td Ts=11.0 - Td=11.1 2014-09-09 13:19:00
1 1953-01-06 15:00:00 Ts debe ser mayor o igual a Td Ts=13.5 - Td=14.1 2013-09-02 16:55:00
1 1953-01-27 10:00:00 Ts debe ser mayor o igual a Td Ts=12.0 - Td=12.2 2013-09-04 14:38:00
1 1953-02-12 12:00:00 Ts debe ser mayor o igual a Td Ts=12.3 - Td=12.6 2013-09-05 14:10:00
1 1953-02-15 14:00:00 HR (Humedad Relativa) es igual a 100% y Ts <> Td 13.5 - 13.1 2013-09-05 14:53:00
1 1953-03-25 12:00:00 Ts debe ser mayor o igual a Td Ts=11.0 - Td=11.1 2013-09-09 20:14:00
1 1953-03-25 14:00:00 Ts debe ser mayor o igual a Td Ts=12.0 - Td=12.1 2013-09-09 20:13:00
1 1953-03-25 15:00:00 Ts debe ser mayor o igual a Td Ts=14.0 - Td=14.1 2013-09-09 20:13:00
1 1953-04-02 10:00:00 Ts debe ser mayor o igual a Td Ts=8.6 - Td=8.7 2013-09-10 15:42:00
1 1953-04-04 11:00:00 HR (Humedad Relativa) es igual a 100% y Ts <> Td 9.4 - 9.0 2013-09-10 18:13:00
1 1953-04-04 12:00:00 HR (Humedad Relativa) es igual a 100% y Ts <> Td 9.4 - 9.0 2013-09-10 18:11:00
1 1953-04-06 11:00:00 Ts debe ser mayor o igual a Td Ts=8.0 - Td=8.2 2013-09-10 19:12:00
1 1953-04-16 12:00:00 Ts debe ser mayor o igual a Td Ts=-5.2 - Td=0.1 2013-09-11 14:29:00
1 1953-04-30 12:00:00 Ts debe ser mayor o igual a Td Ts=7.4 - Td=8.0 2013-09-12 18:49:00
1 1953-06-10 10:00:00 HR (Humedad Relativa) es igual a 100% y Ts <> Td 6.6 - 3.6 2013-09-25 18:29:00
1 1953-06-11 17:00:00 HR (Humedad Relativa) es igual a 100% y Ts <> Td 6.5 - 5.5 2013-09-25 19:01:00
1 1953-06-27 12:00:00 Ts debe ser mayor o igual a Td Ts=3.5 - Td=4.2 2013-09-26 17:33:00
1 1953-07-16 15:00:00 Ts debe ser mayor o igual a Td Ts=7.5 - Td=9.7 2013-10-14 14:38:00
1 1953-07-29 12:00:00 Ts debe ser mayor o igual a Td Ts=-1.5 - Td=2.9 2013-10-15 19:52:00
1 1957-02-21 12:00:00 Ts debe ser mayor o igual a Td Ts=12.7 - Td=12.9 2013-05-09 14:05:00
1 1957-10-26 15:00:00 Ts debe ser mayor o igual a Td Ts=17.4 - Td=40.9 2013-05-09 14:05:00
1 1960-01-13 21:00:00 Ts debe ser mayor o igual a Td Ts=29.9 - Td=30.0 2013-05-09 14:06:00
1 1960-04-11 18:00:00 Ts debe ser mayor o igual a Td Ts=12.0 - Td=17.4 2013-05-09 14:06:00
1 1960-07-06 12:00:00 Ts debe ser mayor o igual a Td Ts=-0.7 - Td=-0.2 2013-05-09 14:06:00
1 1960-07-07 12:00:00 Ts debe ser mayor o igual a Td Ts=-1.5 - Td=2.0 2013-05-09 14:06:00
1 1960-07-30 12:00:00 Ts debe ser mayor o igual a Td Ts=-1.1 - Td=1.5 2013-05-09 14:06:00
1 1960-09-27 21:00:00 Ts debe ser mayor o igual a Td Ts=7.1 - Td=17.5 2013-05-09 14:06:00
1 1960-10-11 18:00:00 Ts debe ser mayor o igual a Td Ts=10.3 - Td=16.3 2013-05-09 14:06:00
1 1961-01-20 12:00:00 Ts debe ser mayor o igual a Td Ts=12.4 - Td=12.7 2013-05-09 14:07:00
1 1961-06-06 12:00:00 Ts debe ser mayor o igual a Td Ts=8.4 - Td=10.3 2013-05-09 14:07:00
1 1961-07-05 12:00:00 Ts debe ser mayor o igual a Td Ts=6.4 - Td=12.7 2013-05-09 14:07:00
1 1961-07-07 12:00:00 Ts debe ser mayor o igual a Td Ts=0.5 - Td=7.5 2013-05-09 14:07:00
1 1961-07-28 21:00:00 Ts debe ser mayor o igual a Td Ts=10.4 - Td=12.4 2013-05-09 14:07:00
1 1962-07-01 12:00:00 Ts debe ser mayor o igual a Td Ts=-0.8 - Td=-0.3 2013-05-09 14:08:00
1 1962-07-03 15:00:00 Ts debe ser mayor o igual a Td Ts=24.8 - Td=40.9 2013-05-09 14:08:00
1 1963-01-17 18:00:00 Ts debe ser mayor o igual a Td Ts=17.4 - Td=21.6 2013-05-09 14:08:00
1 1963-01-24 12:00:00 Ts debe ser mayor o igual a Td Ts=10.7 - Td=13.0 2013-05-09 14:08:00
1 1963-01-26 18:00:00 Ts debe ser mayor o igual a Td Ts=2.0 - Td=23.1 2013-05-09 14:08:00
1 1963-02-23 12:00:00 Ts debe ser mayor o igual a Td Ts=12.8 - Td=14.8 2013-05-09 14:08:00
1 1963-02-24 21:00:00 Ts debe ser mayor o igual a Td Ts=31.3 - Td=40.9 2013-05-09 14:08:00
1 1963-02-26 21:00:00 Ts debe ser mayor o igual a Td Ts=27.1 - Td=40.9 2013-05-09 14:08:00
1 1963-06-19 12:00:00 Ts debe ser mayor o igual a Td Ts=2.0 - Td=15.7 2013-05-09 14:09:00
1 1963-10-09 12:00:00 Ts debe ser mayor o igual a Td Ts=9.5 - Td=10.4 2013-05-09 14:09:00
1 1964-07-24 12:00:00 Ts debe ser mayor o igual a Td Ts=-0.7 - Td=0.5 2013-05-09 14:10:00
1 1964-10-19 15:00:00 Ts debe ser mayor o igual a Td Ts=13.0 - Td=40.9 2013-05-09 14:10:00
1 1964-11-03 12:00:00 Ts debe ser mayor o igual a Td Ts=0.9 - Td=14.9 2013-05-09 14:10:00
1 1965-04-06 18:00:00 Ts debe ser mayor o igual a Td Ts=18.4 - Td=19.3 2013-05-09 14:11:00
1 1965-04-19 21:00:00 Ts debe ser mayor o igual a Td Ts=9.8 - Td=15.6 2013-05-09 14:11:00
1 1965-04-23 18:00:00 Ts debe ser mayor o igual a Td Ts=13.0 - Td=15.1 2013-05-09 14:11:00
1 1965-04-28 21:00:00 Ts debe ser mayor o igual a Td Ts=3.8 - Td=18.4 2013-05-09 14:11:00
1 1965-07-14 12:00:00 Ts debe ser mayor o igual a Td Ts=0.8 - Td=1.3 2013-05-09 14:11:00
1 1965-09-06 12:00:00 Ts debe ser mayor o igual a Td Ts=-0.6 - Td=2.6 2013-05-09 14:11:00
1 1965-09-07 12:00:00 Ts debe ser mayor o igual a Td Ts=24.0 - Td=40.9 2013-05-09 14:11:00
1 1965-12-30 12:00:00 Ts debe ser mayor o igual a Td Ts=11.6 - Td=13.3 2013-05-09 14:12:00
1 1966-01-24 15:00:00 Ts debe ser mayor o igual a Td Ts=9.1 - Td=17.3 2013-05-09 14:12:00
1 1966-05-26 12:00:00 Ts debe ser mayor o igual a Td Ts=7.7 - Td=8.3 2013-05-09 14:12:00
1 1966-08-03 12:00:00 Ts debe ser mayor o igual a Td Ts=-0.4 - Td=0.1 2013-05-09 14:13:00
1 1967-06-13 12:00:00 Ts debe ser mayor o igual a Td Ts=-2.0 - Td=-1.5 2013-05-09 14:14:00
1 1967-06-18 21:00:00 Ts debe ser mayor o igual a Td Ts=0.9 - Td=11.7 2013-05-09 14:14:00
1 1967-06-22 15:00:00 Ts debe ser mayor o igual a Td Ts=0.6 - Td=8.4 2013-05-09 14:14:00
1 1967-06-23 12:00:00 Ts debe ser mayor o igual a Td Ts=-0.8 - Td=0.2 2013-05-09 14:14:00
1 1967-07-15 12:00:00 Ts debe ser mayor o igual a Td Ts=3.6 - Td=12.3 2013-05-09 14:14:00
1 1967-08-08 12:00:00 Ts debe ser mayor o igual a Td Ts=0.2 - Td=10.3 2013-05-09 14:14:00
1 1967-08-31 15:00:00 Ts debe ser mayor o igual a Td Ts=9.7 - Td=40.9 2013-05-09 14:14:00
1 1967-09-01 15:00:00 Ts debe ser mayor o igual a Td Ts=0.2 - Td=12.3 2013-05-09 14:14:00
1 1967-09-14 21:00:00 Ts debe ser mayor o igual a Td Ts=11.9 - Td=17.3 2013-05-09 14:14:00
1 1967-09-17 12:00:00 Ts debe ser mayor o igual a Td Ts=8.4 - Td=8.6 2013-05-09 14:14:00
1 1967-09-19 12:00:00 Ts debe ser mayor o igual a Td Ts=0.0 - Td=1.8 2013-05-09 14:14:00
1 1967-09-23 18:00:00 Ts debe ser mayor o igual a Td Ts=20.4 - Td=40.9 2013-05-09 14:14:00
1 1968-06-18 15:00:00 Ts debe ser mayor o igual a Td Ts=8.8 - Td=9.6 2013-05-09 14:15:00
1 1968-08-12 12:00:00 Ts debe ser mayor o igual a Td Ts=4.8 - Td=9.1 2013-05-09 14:16:00
1 1968-11-19 00:00:00 Ts debe ser mayor o igual a Td Ts=14.9 - Td=15.1 2013-05-09 14:16:00
1 1969-01-27 23:00:00 Ts debe ser mayor o igual a Td Ts=16.3 - Td=19.1 2013-05-09 14:16:00
1 1969-03-13 20:00:00 Ts debe ser mayor o igual a Td Ts=15.8 - Td=17.6 2013-05-09 14:17:00
1 1969-05-03 13:00:00 Ts debe ser mayor o igual a Td Ts=4.4 - Td=12.9 2013-05-09 14:18:00
1 1969-05-22 00:00:00 Ts debe ser mayor o igual a Td Ts=11.2 - Td=16.2 2013-05-09 14:18:00
1 1969-05-26 22:00:00 Ts debe ser mayor o igual a Td Ts=6.8 - Td=15.8 2013-05-09 14:18:00
1 1969-06-06 00:00:00 Ts debe ser mayor o igual a Td Ts=13.2 - Td=13.5 2013-05-09 14:18:00
1 1969-06-13 12:00:00 Ts debe ser mayor o igual a Td Ts=3.5 - Td=6.5 2013-05-09 14:18:00
1 1969-07-04 15:00:00 Ts debe ser mayor o igual a Td Ts=6.3 - Td=11.6 2013-05-09 14:18:00
1 1969-07-05 00:00:00 Ts debe ser mayor o igual a Td Ts=5.3 - Td=12.7 2013-05-09 14:18:00
1 1969-07-05 18:00:00 Ts debe ser mayor o igual a Td Ts=6.8 - Td=7.2 2013-05-09 14:18:00
1 1969-07-06 12:00:00 Ts debe ser mayor o igual a Td Ts=-2.0 - Td=0.7 2013-05-09 14:18:00
1 1969-07-06 13:00:00 Ts debe ser mayor o igual a Td Ts=-1.8 - Td=1.1 2013-05-09 14:18:00
1 1969-07-06 14:00:00 Ts debe ser mayor o igual a Td Ts=-0.8 - Td=-0.6 2013-05-09 14:18:00
1 1969-07-07 00:00:00 Ts debe ser mayor o igual a Td Ts=2.5 - Td=2.7 2013-05-09 14:18:00
1 1969-07-07 13:00:00 Ts debe ser mayor o igual a Td Ts=-1.8 - Td=1.3 2013-05-09 14:18:00
1 1969-07-08 15:00:00 Ts debe ser mayor o igual a Td Ts=4.7 - Td=7.2 2013-05-09 14:18:00
1 1969-07-10 12:00:00 Ts debe ser mayor o igual a Td Ts=3.6 - Td=11.7 2013-05-09 14:18:00
1 1969-07-13 12:00:00 Ts debe ser mayor o igual a Td Ts=3.8 - Td=13.0 2013-05-09 14:18:00
1 1969-07-18 16:00:00 Ts debe ser mayor o igual a Td Ts=8.4 - Td=9.1 2013-05-09 14:18:00
1 1969-08-01 13:00:00 Ts debe ser mayor o igual a Td Ts=-0.7 - Td=3.5 2013-05-09 14:19:00
1 1969-08-01 14:00:00 Ts debe ser mayor o igual a Td Ts=-3.3 - Td=7.6 2013-05-09 14:19:00
1 1969-08-06 12:00:00 Ts debe ser mayor o igual a Td Ts=-0.2 - Td=2.1 2013-05-09 14:19:00
1 1969-08-15 12:00:00 Ts debe ser mayor o igual a Td Ts=5.4 - Td=7.7 2013-05-09 14:19:00
1 1969-08-22 12:00:00 Ts debe ser mayor o igual a Td Ts=6.8 - Td=12.3 2013-05-09 14:19:00
1 1969-09-10 12:00:00 Ts debe ser mayor o igual a Td Ts=7.8 - Td=10.0 2013-05-09 14:19:00
1 1969-09-25 14:00:00 Ts debe ser mayor o igual a Td Ts=7.8 - Td=8.9 2013-05-09 14:19:00
1 1969-10-01 12:00:00 Ts debe ser mayor o igual a Td Ts=0.8 - Td=11.9 2013-05-09 14:19:00
1 1969-11-01 22:00:00 Ts debe ser mayor o igual a Td Ts=4.6 - Td=19.9 2013-05-09 14:20:00
1 1969-11-06 12:00:00 Ts debe ser mayor o igual a Td Ts=6.0 - Td=10.2 2013-05-09 14:20:00
1 1969-11-12 21:00:00 Ts debe ser mayor o igual a Td Ts=3.0 - Td=22.7 2013-05-09 14:20:00
1 1969-11-15 00:00:00 Ts debe ser mayor o igual a Td Ts=16.4 - Td=19.3 2013-05-09 14:20:00
1 1969-11-21 18:00:00 Ts debe ser mayor o igual a Td Ts=2.6 - Td=24.6 2013-05-09 14:20:00
1 1969-12-09 12:00:00 Ts debe ser mayor o igual a Td Ts=13.0 - Td=13.8 2013-05-09 14:20:00
1 1969-12-09 17:00:00 Ts debe ser mayor o igual a Td Ts=5.9 - Td=24.2 2013-05-09 14:20:00
1 1969-12-11 21:00:00 Ts debe ser mayor o igual a Td Ts=3.0 - Td=24.8 2013-05-09 14:20:00
1 1970-05-24 13:00:00 Ts debe ser mayor o igual a Td Ts=8.6 - Td=10.2 2013-05-09 14:22:00
1 1970-05-30 00:00:00 Ts debe ser mayor o igual a Td Ts=12.3 - Td=13.8 2013-05-09 14:22:00
1 1970-06-22 12:00:00 Ts debe ser mayor o igual a Td Ts=-0.5 - Td=-0.3 2013-05-09 14:22:00
1 1970-06-22 13:00:00 Ts debe ser mayor o igual a Td Ts=-0.5 - Td=-0.3 2013-05-09 14:22:00
1 1970-06-24 14:00:00 Ts debe ser mayor o igual a Td Ts=-0.3 - Td=0.2 2013-05-09 14:22:00
1 1970-06-27 17:00:00 Ts debe ser mayor o igual a Td Ts=2.3 - Td=11.9 2013-05-09 14:22:00
1 1970-07-06 12:00:00 Ts debe ser mayor o igual a Td Ts=-1.4 - Td=1.6 2013-05-09 14:22:00
1 1970-07-06 13:00:00 Ts debe ser mayor o igual a Td Ts=-0.5 - Td=-0.2 2013-05-09 14:22:00
1 1970-07-07 12:00:00 Ts debe ser mayor o igual a Td Ts=-1.6 - Td=1.7 2013-05-09 14:22:00
1 1970-07-07 13:00:00 Ts debe ser mayor o igual a Td Ts=-0.6 - Td=-0.1 2013-05-09 14:22:00
1 1970-08-17 15:00:00 Ts debe ser mayor o igual a Td Ts=8.4 - Td=9.9 2013-05-09 14:23:00
1 1970-09-30 21:00:00 Ts debe ser mayor o igual a Td Ts=6.7 - Td=11.5 2013-05-09 14:23:00
1 1970-10-30 14:00:00 Ts debe ser mayor o igual a Td Ts=3.0 - Td=16.0 2013-05-09 14:24:00
1 1971-01-11 20:00:00 Ts debe ser mayor o igual a Td Ts=12.5 - Td=14.3 2013-05-09 14:24:00
1 1971-02-06 17:00:00 Ts debe ser mayor o igual a Td Ts=15.3 - Td=17.3 2013-05-09 14:25:00
1 1971-03-31 14:00:00 Ts debe ser mayor o igual a Td Ts=16.4 - Td=16.7 2013-05-09 14:25:00
1 1971-04-06 16:00:00 Ts debe ser mayor o igual a Td Ts=18.8 - Td=19.1 2013-05-09 14:25:00
1 1971-04-12 14:00:00 Ts debe ser mayor o igual a Td Ts=4.2 - Td=11.6 2013-05-09 14:25:00
1 1971-04-16 12:00:00 Ts debe ser mayor o igual a Td Ts=3.1 - Td=11.8 2013-05-09 14:25:00
1 1971-05-17 18:00:00 Ts debe ser mayor o igual a Td Ts=15.6 - Td=19.1 2013-05-09 14:26:00
1 1971-06-04 18:00:00 Ts debe ser mayor o igual a Td Ts=11.8 - Td=22.4 2013-05-09 14:26:00
1 1971-06-21 13:00:00 Ts debe ser mayor o igual a Td Ts=0.2 - Td=1.4 2013-05-09 14:26:00
1 1971-06-22 13:00:00 Ts debe ser mayor o igual a Td Ts=-0.6 - Td=2.2 2013-05-09 14:26:00
1 1971-07-05 12:00:00 Ts debe ser mayor o igual a Td Ts=3.8 - Td=11.6 2013-05-09 14:26:00
1 1971-08-26 00:00:00 Ts debe ser mayor o igual a Td Ts=13.4 - Td=18.8 2013-05-09 14:27:00
1 1971-09-01 16:00:00 Ts debe ser mayor o igual a Td Ts=17.0 - Td=24.9 2013-05-09 14:27:00
1 1971-09-01 23:00:00 Ts debe ser mayor o igual a Td Ts=14.8 - Td=21.9 2013-05-09 14:27:00
1 1971-09-02 14:00:00 Ts debe ser mayor o igual a Td Ts=1.2 - Td=13.6 2013-05-09 14:27:00
1 1971-09-03 17:00:00 Ts debe ser mayor o igual a Td Ts=17.6 - Td=18.3 2013-05-09 14:27:00
1 1971-09-17 15:00:00 Ts debe ser mayor o igual a Td Ts=10.4 - Td=23.1 2013-05-09 14:27:00
1 1971-09-20 12:00:00 Ts debe ser mayor o igual a Td Ts=6.8 - Td=20.0 2013-05-09 14:27:00
1 1971-10-01 15:00:00 Ts debe ser mayor o igual a Td Ts=12.2 - Td=12.4 2013-05-09 14:27:00
1 1971-11-15 23:00:00 Ts debe ser mayor o igual a Td Ts=26.0 - Td=30.1 2013-05-09 14:28:00
1 1971-12-02 14:00:00 Ts debe ser mayor o igual a Td Ts=17.7 - Td=20.4 2013-05-09 14:28:00
1 1971-12-05 12:00:00 Ts debe ser mayor o igual a Td Ts=0.0 - Td=17.6 2013-05-09 14:28:00
1 1971-12-08 15:00:00 Ts debe ser mayor o igual a Td Ts=3.7 - Td=21.4 2013-05-09 14:28:00
1 1972-01-06 18:00:00 Ts debe ser mayor o igual a Td Ts=13.1 - Td=22.6 2013-05-09 14:28:00
1 1972-02-22 18:00:00 Ts debe ser mayor o igual a Td Ts=2.6 - Td=23.7 2013-05-09 14:29:00
1 1972-05-20 13:00:00 Ts debe ser mayor o igual a Td Ts=7.5 - Td=9.1 2013-05-09 14:29:00
1 1972-06-07 23:00:00 Ts debe ser mayor o igual a Td Ts=11.2 - Td=11.9 2013-05-09 14:30:00
1 1972-07-07 14:00:00 Ts debe ser mayor o igual a Td Ts=-1.2 - Td=1.0 2013-05-09 14:30:00
1 1972-07-23 00:00:00 Ts debe ser mayor o igual a Td Ts=0.8 - Td=11.0 2013-05-09 14:30:00
1 1972-09-14 13:00:00 Ts debe ser mayor o igual a Td Ts=10.3 - Td=10.5 2013-05-09 14:31:00
1 1972-11-24 21:00:00 Ts debe ser mayor o igual a Td Ts=25.2 - Td=26.4 2013-05-09 14:31:00
1 1973-05-11 15:00:00 Ts debe ser mayor o igual a Td Ts=3.1 - Td=12.4 2013-05-09 14:33:00
1 1973-05-30 15:00:00 Ts debe ser mayor o igual a Td Ts=8.3 - Td=9.4 2013-05-09 14:33:00
1 1973-08-04 12:00:00 Ts debe ser mayor o igual a Td Ts=3.5 - Td=3.7 2013-05-09 14:34:00
1 1973-10-14 11:00:00 Ts debe ser mayor o igual a Td Ts=9.9 - Td=10.1 2013-05-09 14:35:00
1 1973-10-14 13:00:00 Ts debe ser mayor o igual a Td Ts=9.9 - Td=10.1 2013-05-09 14:35:00
1 1973-12-29 18:00:00 Ts debe ser mayor o igual a Td Ts=10.2 - Td=20.6 2013-05-09 14:36:00
1 1974-02-06 11:00:00 Ts debe ser mayor o igual a Td Ts=13.4 - Td=17.9 2013-05-09 14:36:00
1 1974-02-23 14:00:00 Ts debe ser mayor o igual a Td Ts=14.8 - Td=15.0 2013-05-09 14:36:00
1 1974-07-02 18:00:00 Ts debe ser mayor o igual a Td Ts=7.7 - Td=9.3 2013-05-09 14:38:00
1 1974-07-21 12:00:00 Ts debe ser mayor o igual a Td Ts=-0.8 - Td=0.6 2013-05-09 14:38:00
1 1974-07-21 13:00:00 Ts debe ser mayor o igual a Td Ts=-0.4 - Td=0.3 2013-05-09 14:38:00
1 1974-07-22 23:00:00 Ts debe ser mayor o igual a Td Ts=5.8 - Td=9.5 2013-05-09 14:38:00
1 1974-11-10 11:00:00 Ts debe ser mayor o igual a Td Ts=8.4 - Td=9.5 2013-05-09 14:39:00
1 1975-02-17 17:00:00 Ts debe ser mayor o igual a Td Ts=12.6 - Td=20.4 2013-05-09 14:40:00
1 1975-07-16 12:00:00 Ts debe ser mayor o igual a Td Ts=-0.8 - Td=3.4 2013-05-09 14:42:00
1 1975-07-17 21:00:00 Ts debe ser mayor o igual a Td Ts=8.4 - Td=14.6 2013-05-09 14:42:00
1 1975-07-25 12:00:00 Ts debe ser mayor o igual a Td Ts=-0.4 - Td=0.1 2013-05-09 14:42:00
1 1975-10-17 17:00:00 Ts debe ser mayor o igual a Td Ts=16.0 - Td=16.6 2013-05-09 14:43:00
1 1975-12-25 13:00:00 Ts debe ser mayor o igual a Td Ts=13.2 - Td=14.5 2013-05-09 14:44:00
1 1975-12-25 14:00:00 Ts debe ser mayor o igual a Td Ts=13.8 - Td=14.1 2013-05-09 14:44:00
1 1975-12-28 11:00:00 Ts debe ser mayor o igual a Td Ts=11.7 - Td=13.0 2013-05-09 14:44:00
1 1976-01-02 13:00:00 Ts debe ser mayor o igual a Td Ts=11.0 - Td=16.6 2013-05-09 14:44:00
1 1976-03-08 12:00:00 Ts debe ser mayor o igual a Td Ts=4.2 - Td=16.3 2013-05-09 14:44:00
1 1976-05-26 12:00:00 Ts debe ser mayor o igual a Td Ts=5.8 - Td=6.2 2013-05-09 14:45:00
1 1976-06-29 13:00:00 Ts debe ser mayor o igual a Td Ts=0.7 - Td=1.2 2013-05-09 14:46:00
1 1976-07-05 12:00:00 Ts debe ser mayor o igual a Td Ts=2.0 - Td=6.4 2013-05-09 14:46:00
1 1976-08-27 12:00:00 Ts debe ser mayor o igual a Td Ts=4.2 - Td=12.3 2013-05-09 14:46:00
1 1976-09-12 21:00:00 Ts debe ser mayor o igual a Td Ts=18.0 - Td=19.3 2013-05-09 14:46:00
1 1976-11-15 12:00:00 Ts debe ser mayor o igual a Td Ts=3.7 - Td=15.9 2013-05-09 14:47:00
1 1977-03-04 11:00:00 Ts debe ser mayor o igual a Td Ts=13.0 - Td=15.4 2013-05-09 14:48:00
1 1977-06-09 19:00:00 Ts debe ser mayor o igual a Td Ts=12.1 - Td=22.0 2013-05-09 14:49:00
1 1977-07-05 00:00:00 Ts debe ser mayor o igual a Td Ts=5.2 - Td=16.5 2013-05-09 14:49:00
1 1977-07-29 13:00:00 Ts debe ser mayor o igual a Td Ts=4.0 - Td=5.6 2013-05-09 14:50:00
1 1977-08-09 20:00:00 Ts debe ser mayor o igual a Td Ts=12.6 - Td=18.9 2013-05-09 14:50:00
1 1977-11-01 14:00:00 Ts debe ser mayor o igual a Td Ts=14.2 - Td=18.4 2013-05-09 14:51:00
1 1977-11-20 14:00:00 Ts debe ser mayor o igual a Td Ts=9.4 - Td=12.8 2013-05-09 14:51:00
1 1977-12-21 15:00:00 Ts debe ser mayor o igual a Td Ts=12.2 - Td=19.2 2013-05-09 14:51:00
1 1978-01-28 12:00:00 Ts debe ser mayor o igual a Td Ts=15.6 - Td=18.3 2013-05-09 14:52:00
1 1978-03-25 12:00:00 Ts debe ser mayor o igual a Td Ts=4.7 - Td=13.8 2013-05-09 14:52:00
1 1978-05-13 22:00:00 Ts debe ser mayor o igual a Td Ts=11.7 - Td=13.5 2013-05-09 14:53:00
1 1978-08-07 13:00:00 Ts debe ser mayor o igual a Td Ts=2.7 - Td=3.3 2013-05-09 14:54:00
1 1978-10-06 14:00:00 Ts debe ser mayor o igual a Td Ts=11.6 - Td=12.1 2013-05-09 14:54:00
1 1978-10-19 23:00:00 Ts debe ser mayor o igual a Td Ts=19.6 - Td=25.4 2013-05-09 14:54:00
1 1979-01-12 11:00:00 Ts debe ser mayor o igual a Td Ts=11.8 - Td=13.8 2013-05-09 14:55:00
1 1979-01-30 11:00:00 Ts debe ser mayor o igual a Td Ts=6.2 - Td=17.2 2013-05-09 14:56:00
1 1979-04-21 14:00:00 Ts debe ser mayor o igual a Td Ts=1.1 - Td=15.5 2013-05-09 14:56:00
1 1979-05-07 21:00:00 Ts debe ser mayor o igual a Td Ts=8.7 - Td=16.2 2013-05-09 14:57:00
1 1980-01-19 19:00:00 Ts debe ser mayor o igual a Td Ts=32.0 - Td=40.9 2013-05-09 14:59:00
1 1983-01-19 21:00:00 Ts debe ser mayor o igual a Td Ts=16.2 - Td=23.3 2013-05-09 15:11:00
1 1983-01-31 20:00:00 Ts debe ser mayor o igual a Td Ts=19.4 - Td=19.7 2013-05-09 15:11:00
1 1983-03-12 14:00:00 Ts debe ser mayor o igual a Td Ts=12.2 - Td=15.4 2013-05-09 15:12:00
1 1983-04-24 21:00:00 Ts debe ser mayor o igual a Td Ts=2.1 - Td=19.8 2013-05-09 15:12:00
1 1983-05-04 21:00:00 Ts debe ser mayor o igual a Td Ts=-1.6 - Td=18.6 2013-05-09 15:12:00
1 1983-06-27 16:00:00 Ts debe ser mayor o igual a Td Ts=0.8 - Td=9.8 2013-05-09 15:13:00
1 1983-07-04 14:00:00 Ts debe ser mayor o igual a Td Ts=0.2 - Td=13.3 2013-05-09 15:13:00
1 1983-07-08 21:00:00 Ts debe ser mayor o igual a Td Ts=7.2 - Td=9.7 2013-05-09 15:13:00
1 1983-07-16 13:00:00 Ts debe ser mayor o igual a Td Ts=3.0 - Td=23.1 2013-05-09 15:13:00
1 1983-08-01 21:00:00 Ts debe ser mayor o igual a Td Ts=4.8 - Td=15.8 2013-05-09 15:13:00
1 1983-08-08 19:00:00 Ts debe ser mayor o igual a Td Ts=16.6 - Td=18.1 2013-05-09 15:13:00
1 1983-08-16 23:00:00 Ts debe ser mayor o igual a Td Ts=12.0 - Td=21.0 2013-05-09 15:13:00
1 1983-08-20 21:00:00 Ts debe ser mayor o igual a Td Ts=8.2 - Td=10.7 2013-05-09 15:13:00
1 1983-09-23 14:00:00 Ts debe ser mayor o igual a Td Ts=1.4 - Td=15.9 2013-05-09 15:14:00
1 1983-10-01 17:00:00 Ts debe ser mayor o igual a Td Ts=2.5 - Td=21.8 2013-05-09 15:14:00
1 1983-10-10 22:00:00 Ts debe ser mayor o igual a Td Ts=9.2 - Td=16.7 2013-05-09 15:14:00
1 1983-10-16 11:00:00 Ts debe ser mayor o igual a Td Ts=0.6 - Td=14.3 2013-05-09 15:14:00
1 1983-11-17 14:00:00 Ts debe ser mayor o igual a Td Ts=11.8 - Td=12.1 2013-05-09 15:14:00
1 1983-12-06 21:00:00 Ts debe ser mayor o igual a Td Ts=15.8 - Td=19.6 2013-05-09 15:15:00
1 1983-12-08 14:00:00 Ts debe ser mayor o igual a Td Ts=14.8 - Td=19.9 2013-05-09 15:15:00
1 1985-01-05 13:00:00 Ts debe ser mayor o igual a Td Ts=17.5 - Td=18.4 2013-05-09 15:18:00
1 1985-03-12 13:00:00 Ts debe ser mayor o igual a Td Ts=12.2 - Td=18.9 2013-05-09 15:19:00
1 1985-05-18 12:00:00 Ts debe ser mayor o igual a Td Ts=0.0 - Td=9.5 2013-05-09 15:19:00
1 1985-07-30 12:00:00 Ts debe ser mayor o igual a Td Ts=0.6 - Td=3.3 2013-05-09 15:20:00
1 1985-08-05 12:00:00 Ts debe ser mayor o igual a Td Ts=0.6 - Td=10.3 2013-05-09 15:20:00
1 1985-09-17 00:00:00 Ts debe ser mayor o igual a Td Ts=1.3 - Td=15.5 2013-05-09 15:21:00
1 1985-11-11 11:00:00 Ts debe ser mayor o igual a Td Ts=1.8 - Td=13.8 2013-05-09 15:21:00
1 1987-02-02 15:00:00 Ts debe ser mayor o igual a Td Ts=16.0 - Td=20.5 2013-05-09 15:25:00
1 1987-05-11 15:00:00 Ts debe ser mayor o igual a Td Ts=1.2 - Td=15.7 2013-05-09 15:26:00
1 1987-06-09 18:00:00 Ts debe ser mayor o igual a Td Ts=11.4 - Td=16.7 2013-05-09 15:26:00
1 1987-06-23 15:00:00 Ts debe ser mayor o igual a Td Ts=4.2 - Td=14.8 2013-05-09 15:26:00
1 1987-07-09 18:00:00 Ts debe ser mayor o igual a Td Ts=8.3 - Td=11.8 2013-05-09 15:26:00
1 1987-07-19 12:00:00 Ts debe ser mayor o igual a Td Ts=-1.4 - Td=5.4 2013-05-09 15:26:00
1 1987-08-09 21:00:00 Ts debe ser mayor o igual a Td Ts=0.8 - Td=13.8 2013-05-09 15:26:00
1 1987-08-28 12:00:00 Ts debe ser mayor o igual a Td Ts=6.2 - Td=10.3 2013-05-09 15:27:00
1 1987-08-30 00:00:00 Ts debe ser mayor o igual a Td Ts=2.7 - Td=9.9 2013-05-09 15:27:00
1 1987-09-14 00:00:00 Ts debe ser mayor o igual a Td Ts=10.0 - Td=23.1 2013-05-09 15:27:00
1 1989-12-29 19:00:00 Ts debe ser mayor o igual a Td Ts=9.8 - Td=22.4 2013-05-09 15:33:00
1 1990-03-22 16:00:00 Ts debe ser mayor o igual a Td Ts=5.9 - Td=17.2 2013-05-09 15:34:00
1 1990-10-03 16:00:00 Ts debe ser mayor o igual a Td Ts=4.0 - Td=16.5 2013-05-09 15:35:00
1 1990-11-24 10:00:00 Ts debe ser mayor o igual a Td Ts=4.2 - Td=17.9 2013-05-09 15:35:00
1 1953-08-22 13:00:00 ts > 3.0 y ( (ww >= 48 y ww <= 49) o (ww >= 56 y ww <= 57) o (ww >=66 y ww <= 67)) 67 2013-10-17 17:59:00
1 1953-08-22 17:00:00 ts > 5.0 y ((ww >= 70 y ww <= 79) || (ww >= 85 y ww <= 88))) 87 2013-10-17 17:58:00
1 1957-01-03 12:00:00 (ts - td > 5.0) y ((ww >= 40 y ww <= 49)) 43 2013-05-09 20:40:00
1 1961-03-14 15:00:00 ts > 3.0 y ( (ww >= 48 y ww <= 49) o (ww >= 56 y ww <= 57) o (ww >=66 y ww <= 67)) 56 2013-05-09 20:42:00
1 1969-05-07 15:00:00 (ts - td > 5.0) y ((ww >= 40 y ww <= 49)) 43 2013-05-09 20:53:00
1 1972-05-27 00:00:00 (ts - td > 5.0) y ((ww >= 40 y ww <= 49)) 46 2013-05-09 20:59:00
1 1987-02-23 18:00:00 ts > 5.0 y ((ww >= 70 y ww <= 79) || (ww >= 85 y ww <= 88))) 70 2013-05-09 21:24:00
1 1987-05-25 15:00:00 ts > 3.0 y ( (ww >= 48 y ww <= 49) o (ww >= 56 y ww <= 57) o (ww >=66 y ww <= 67)) 56 2013-05-09 21:25:00
1 1982-05-11 12:00:00 rrr = 0.2 y WW = 10 w1=2 w2=2 0.2 2013-05-09 13:05:00
1 1982-06-28 12:00:00 rrr = 1.6 y WW = 10 w1=2 w2=2 1.6 2013-05-09 13:05:00
1 1982-07-17 12:00:00 rrr = 2.4 y WW = 10 w1=2 w2=2 2.4 2013-05-09 13:05:00
1 1982-08-25 12:00:00 rrr = 0.4 y WW = 5 w1=2 w2=2 0.4 2013-05-09 13:05:00
1 1982-09-14 12:00:00 rrr = 0.3 y WW = 5 w1=2 w2=2 0.3 2013-05-09 13:05:00
1 1983-01-12 12:00:00 rrr = 7.0 y WW = 5 w1=1 w2=1 7.0 2013-05-09 13:05:00
1 1983-04-01 12:00:00 rrr = trazas y WW = 10 w1=0 w2=0 0.0 2013-05-09 13:05:00
1 1983-05-30 12:00:00 rrr = 5.6 y WW = 10 w1=0 w2=0 5.6 2013-05-09 13:05:00
1 1983-06-19 12:00:00 rrr = 0.4 y WW = 5 w1=2 w2=2 0.4 2013-05-09 13:05:00
1 1983-06-22 12:00:00 rrr = 0.8 y WW = 10 w1=0 w2=0 0.8 2013-05-09 13:05:00
1 1983-07-09 00:00:00 rrr = 0.7 y WW = 10 w1=2 w2=2 0.7 2013-05-09 13:05:00
1 1983-07-24 00:00:00 rrr = trazas y WW = 6 w1=2 w2=2 0.0 2013-05-09 13:05:00
1 1983-08-14 18:00:00 rrr = trazas y WW = 6 w1=2 w2=1 0.0 2013-05-09 13:05:00
1 1983-08-28 12:00:00 rrr = 6.0 y WW = 5 w1=2 w2=2 6.0 2013-05-09 13:05:00
1 1983-09-17 00:00:00 rrr = s/p y WW = 25 w1=6 w2=6 0.0 2013-05-09 13:05:00
1 1983-09-21 18:00:00 rrr = trazas y WW = 5 w1=2 w2=2 0.0 2013-05-09 13:05:00
1 1983-10-25 00:00:00 rrr = s/p y WW = 6 w1=5 w2=4 0.0 2013-05-09 13:05:00
1 1984-05-26 00:00:00 rrr = trazas y WW = 15 w1=2 w2=2 0.0 2013-05-09 13:06:00
1 1984-06-25 12:00:00 rrr = trazas y WW = 5 w1=2 w2=2 0.0 2013-05-09 13:06:00
1 1984-06-28 12:00:00 rrr = 0.6 y WW = 5 w1=0 w2=0 0.6 2013-05-09 13:06:00
1 1984-07-07 00:00:00 rrr = 0.2 y WW = 5 w1=2 w2=2 0.2 2013-05-09 13:06:00
1 1984-07-08 18:00:00 rrr = trazas y WW = 6 w1=4 w2=2 0.0 2013-05-09 13:06:00
1 1984-07-09 00:00:00 rrr = 2.4 y WW = 6 w1=2 w2=2 2.4 2013-05-09 13:06:00
1 1984-07-12 12:00:00 rrr = trazas y WW = 10 w1=0 w2=0 0.0 2013-05-09 13:06:00
1 1984-07-30 12:00:00 rrr = trazas y WW = 10 w1=4 w2=2 0.0 2013-05-09 13:06:00
1 1984-08-22 18:00:00 rrr = 0.2 y WW = 5 w1=2 w2=2 0.2 2013-05-09 13:06:00
1 1984-09-14 12:00:00 rrr = 0.8 y WW = 10 w1=1 w2=1 0.8 2013-05-09 13:06:00
1 1984-10-30 12:00:00 rrr = 2.1 y WW = 5 w1=0 w2=0 2.1 2013-05-09 13:06:00
1 1984-11-21 12:00:00 rrr = trazas y WW = 5 w1=0 w2=0 0.0 2013-05-09 13:06:00
1 1985-04-01 00:00:00 rrr = 0.2 y WW = 5 w1=2 w2=2 0.2 2013-05-09 13:06:00
1 1985-04-25 18:00:00 rrr = trazas y WW = 10 w1=4 w2=4 0.0 2013-05-09 13:06:00
1 1985-04-26 00:00:00 rrr = trazas y WW = 10 w1=4 w2=4 0.0 2013-05-09 13:06:00
1 1985-05-12 00:00:00 rrr = trazas y WW = 5 w1=2 w2=2 0.0 2013-05-09 13:06:00
1 1985-05-18 12:00:00 rrr = 2.1 y WW = 5 w1=2 w2=2 2.1 2013-05-09 13:06:00
1 1985-06-14 00:00:00 rrr = 1.2 y WW = 5 w1=2 w2=2 1.2 2013-05-09 13:06:00
1 1985-06-28 00:00:00 rrr = trazas y WW = 5 w1=2 w2=1 0.0 2013-05-09 13:06:00
1 1985-07-04 00:00:00 rrr = 2.4 y WW = 5 w1=2 w2=2 2.4 2013-05-09 13:06:00
1 1985-07-05 12:00:00 rrr = trazas y WW = 5 w1=0 w2=0 0.0 2013-05-09 13:06:00
1 1985-07-09 12:00:00 rrr = trazas y WW = 5 w1=0 w2=0 0.0 2013-05-09 13:06:00
1 1985-07-26 12:00:00 rrr = trazas y WW = 5 w1=0 w2=0 0.0 2013-05-09 13:06:00
1 1985-08-05 12:00:00 rrr = trazas y WW = 10 w1=4 w2=4 0.0 2013-05-09 13:06:00
1 1985-08-23 18:00:00 rrr = s/p y WW = 5 w1=5 w2=4 0.0 2013-05-09 13:06:00
1 1985-09-13 12:00:00 rrr = trazas y WW = 5 w1=2 w2=2 0.0 2013-05-09 13:06:00
1 1985-09-26 18:00:00 rrr = trazas y WW = 5 w1=2 w2=2 0.0 2013-05-09 13:06:00
1 1985-10-18 12:00:00 rrr = 6.4 y WW = 5 w1=2 w2=2 6.4 2013-05-09 13:06:00
1 1985-10-21 12:00:00 rrr = 0.5 y WW = 5 w1=2 w2=2 0.5 2013-05-09 13:06:00
1 1986-08-14 12:00:00 rrr = 3.6 y WW = 10 w1=2 w2=2 3.6 2013-05-09 13:07:00
1 1987-05-01 12:00:00 rrr = 0.5 y WW = 10 w1=4 w2=4 0.5 2013-05-09 13:07:00
1 1987-05-26 12:00:00 rrr = trazas y WW = 5 w1=1 w2=1 0.0 2013-05-09 13:07:00
1 1987-05-30 12:00:00 rrr = 0.2 y WW = 2 w1=2 w2=2 0.2 2013-05-09 13:07:00
1 1987-06-04 12:00:00 rrr = 0.2 y WW = 12 w1=4 w2=4 0.2 2013-05-09 13:07:00
1 1987-07-10 12:00:00 rrr = 0.5 y WW = 5 w1=2 w2=2 0.5 2013-05-09 13:07:00
1 1987-07-13 12:00:00 rrr = 1.8 y WW = 5 w1=2 w2=2 1.8 2013-05-09 13:07:00
1 1987-07-16 12:00:00 rrr = 16.4 y WW = 3 w1=1 w2=1 16.4 2013-05-09 13:07:00
1 1987-08-10 12:00:00 rrr = 0.6 y WW = 2 w1=2 w2=1 0.6 2013-05-09 13:07:00
1 1987-08-10 18:00:00 rrr = s/p y WW = 60 w1=6 w2=2 0.0 2013-05-09 13:07:00
1 1987-08-11 18:00:00 rrr = s/p y WW = 60 w1=6 w2=6 0.0 2013-05-09 13:07:00
1 1987-08-15 12:00:00 rrr = 0.6 y WW = 2 w1=2 w2=2 0.6 2013-05-09 13:07:00
1 1987-08-16 18:00:00 rrr = s/p y WW = 20 w1=1 w2=0 0.0 2013-05-09 13:07:00
1 1987-09-15 12:00:00 rrr = 0.1 y WW = 5 w1=0 w2=0 0.1 2013-05-09 13:08:00
1 1987-09-25 18:00:00 rrr = s/p y WW = 5 w1=5 w2=2 0.0 2013-05-09 13:08:00
1 1988-05-16 12:00:00 rrr = 1.2 y WW = 2 w1=2 w2=1 1.2 2013-05-09 13:08:00
1 1988-07-02 12:00:00 rrr = 3.2 y WW = 10 w1=0 w2=0 3.2 2013-05-09 13:08:00
1 1988-07-04 12:00:00 rrr = trazas y WW = 5 w1=1 w2=1 0.0 2013-05-09 13:08:00
1 1989-06-01 12:00:00 rrr = trazas y WW = 5 w1=2 w2=2 0.0 2013-05-09 13:08:00
1 1990-06-04 12:00:00 rrr = 0.2 y WW = 2 w1=2 w2=2 0.2 2013-05-09 13:09:00
1 1990-08-14 12:00:00 rrr = 3.2 y WW = 5 w1=2 w2=2 3.2 2013-05-09 13:09:00
1 1990-08-24 12:00:00 rrr = trazas y WW = 10 w1=2 w2=2 0.0 2013-05-09 13:09:00
1 1990-09-01 12:00:00 rrr = 0.5 y WW = 10 w1=2 w2=2 0.5 2013-05-09 13:09:00
1 1990-09-03 12:00:00 rrr = 2.0 y WW = 10 w1=2 w2=2 2.0 2013-05-09 13:09:00
1 1990-09-05 12:00:00 rrr = 0.1 y WW = 5 w1=2 w2=2 0.1 2013-05-09 13:09:00
1 1990-09-06 12:00:00 rrr = trazas y WW = 5 w1=2 w2=2 0.0 2013-05-09 13:09:00
1 1990-09-12 12:00:00 rrr = 0.2 y WW = 5 w1=0 w2=0 0.2 2013-05-09 13:09:00
1 1990-09-26 12:00:00 rrr = trazas y WW = 10 w1=2 w2=2 0.0 2013-05-09 13:09:00
Errores del Nivel 418
Nivel Fecha del Dato Descripción Información Error Fecha Ingreso
2 1952-03-15 19:00:00 Variación horaria de Intensidad del viento fuera de rango (1 hora Antes) 90 - 12 2014-08-21 13:35:00
2 1952-12-15 23:00:00 Variación horaria de Intensidad del viento fuera de rango (1 hora Antes) 143 - 14 2014-09-08 19:53:00
2 1952-12-15 23:00:00 Variación Tri-horaria de Intensidad del viento fuera de rango (3 hora Antes) 143 - 14 2014-09-08 19:53:00
2 1953-04-05 18:00:00 Variación horaria de Intensidad del viento fuera de rango (1 hora Antes) 90 - 12 2013-09-10 18:30:00
2 1953-04-05 19:00:00 Variación horaria de Intensidad del viento fuera de rango (1 hora Antes) 10 - 90 2013-09-10 18:29:00
2 1953-05-25 12:00:00 Variación horaria de Intensidad del viento fuera de rango (1 hora Antes) 61 - 12 2013-09-23 20:14:00
2 1953-05-25 13:00:00 Variación horaria de Intensidad del viento fuera de rango (1 hora Antes) 8 - 61 2013-09-23 20:15:00
2 1971-01-21 15:00:00 Variación horaria de Intensidad del viento fuera de rango (1 hora Antes) 42 - 4 2013-05-10 00:14:00
2 1971-01-21 16:00:00 Variación horaria de Intensidad del viento fuera de rango (1 hora Antes) 6 - 42 2013-05-10 00:14:00
2 1974-06-08 20:00:00 Variación horaria de Intensidad del viento fuera de rango (1 hora Antes) 8 - 40 2013-05-10 00:29:00
2 1987-09-23 18:00:00 Variación horaria de Intensidad del viento fuera de rango (1 hora Antes) 40 - 1 2013-05-10 01:26:00
2 1987-09-23 19:00:00 Variación horaria de Intensidad del viento fuera de rango (1 hora Antes) 6 - 40 2013-05-10 01:26:00
2 1952-01-04 00:00:00 Temperatura 28.0 del 03-01-1952 14:00, Mayor que la Máxima 27.8 04-01-1952 00:00 28.0 -- 27.8 2014-08-27 20:41:00
2 1952-01-15 00:00:00 Temperatura 30.8 del 14-01-1952 17:00, Mayor que la Máxima 30.2 15-01-1952 00:00 30.8 -- 30.2 2014-08-27 20:44:00
2 1952-01-22 00:00:00 Temperatura 30.5 del 21-01-1952 15:00, Mayor que la Máxima 30.0 22-01-1952 00:00 30.5 -- 30.0 2014-08-27 20:45:00
2 1952-02-16 00:00:00 Temperatura 30.4 del 15-02-1952 17:00, Mayor que la Máxima 20.4 16-02-1952 00:00 30.4 -- 20.4 2014-08-27 20:58:00
2 1952-03-06 00:00:00 Temperatura 28.6 del 05-03-1952 16:00, Mayor que la Máxima 28.6 06-03-1952 00:00 28.6 -- 28.6 2014-08-28 13:41:00
2 1952-03-08 00:00:00 Temperatura 27.4 del 07-03-1952 16:00, Mayor que la Máxima 27.0 08-03-1952 00:00 27.4 -- 27.0 2014-08-28 13:41:00
2 1952-03-16 00:00:00 Temperatura 24.5 del 15-03-1952 14:00, Mayor que la Máxima 24.0 16-03-1952 00:00 24.5 -- 24.0 2014-08-28 13:42:00
2 1952-03-30 00:00:00 Temperatura 16.5 del 29-03-1952 14:00, Mayor que la Máxima 16.0 30-03-1952 00:00 16.5 -- 16.0 2014-08-28 13:45:00
2 1952-04-08 00:00:00 Temperatura 19.0 del 07-04-1952 18:00, Mayor que la Máxima 18.5 08-04-1952 00:00 19.0 -- 18.5 2014-08-28 14:00:00
2 1952-04-14 00:00:00 Temperatura 29.3 del 13-04-1952 16:00, Mayor que la Máxima 29.0 14-04-1952 00:00 29.3 -- 29.0 2014-08-28 14:00:00
2 1952-04-23 00:00:00 Temperatura 23.3 del 22-04-1952 16:00, Mayor que la Máxima 22.3 23-04-1952 00:00 23.3 -- 22.3 2014-08-28 14:01:00
2 1952-05-04 00:00:00 Temperatura 26.5 del 03-05-1952 16:00, Mayor que la Máxima 26.0 04-05-1952 00:00 26.5 -- 26.0 2014-08-28 14:19:00
2 1952-05-15 00:00:00 Temperatura 15.1 del 14-05-1952 16:00, Mayor que la Máxima 15.0 15-05-1952 00:00 15.1 -- 15.0 2014-08-28 14:19:00
2 1952-05-16 00:00:00 Temperatura 16.0 del 15-05-1952 14:00, Mayor que la Máxima 15.7 16-05-1952 00:00 16.0 -- 15.7 2014-08-28 14:19:00
2 1952-06-10 00:00:00 Temperatura 13.5 del 09-06-1952 15:00, Mayor que la Máxima 13.0 10-06-1952 00:00 13.5 -- 13.0 2014-08-28 14:30:00
2 1952-06-27 00:00:00 Temperatura 11.2 del 26-06-1952 16:00, Mayor que la Máxima 11.0 27-06-1952 00:00 11.2 -- 11.0 2014-08-28 14:30:00
2 1952-07-15 00:00:00 Temperatura 16.4 del 14-07-1952 16:00, Mayor que la Máxima 16.0 15-07-1952 00:00 16.4 -- 16.0 2014-09-09 18:43:00
2 1952-07-22 00:00:00 Temperatura 12.3 del 21-07-1952 15:00, Mayor que la Máxima 12.2 22-07-1952 00:00 12.3 -- 12.2 2014-09-09 18:43:00
2 1952-08-07 00:00:00 Temperatura 16.3 del 06-08-1952 15:00, Mayor que la Máxima 15.6 07-08-1952 00:00 16.3 -- 15.6 2014-09-09 18:54:00
2 1952-08-19 00:00:00 Temperatura 23.6 del 18-08-1952 15:00, Mayor que la Máxima 22.9 19-08-1952 00:00 23.6 -- 22.9 2014-09-09 18:54:00
2 1952-08-23 00:00:00 Temperatura 7.5 del 22-08-1952 13:00, Mayor que la Máxima 7.4 23-08-1952 00:00 7.5 -- 7.4 2014-09-09 18:54:00
2 1952-08-26 00:00:00 Temperatura 16.4 del 25-08-1952 14:00, Mayor que la Máxima 16.2 26-08-1952 00:00 16.4 -- 16.2 2014-09-09 18:54:00
2 1952-08-27 00:00:00 Temperatura 20.4 del 26-08-1952 15:00, Mayor que la Máxima 20.3 27-08-1952 00:00 20.4 -- 20.3 2014-09-09 18:54:00
2 1952-09-13 00:00:00 Temperatura 24.0 del 12-09-1952 14:00, Mayor que la Máxima 23.8 13-09-1952 00:00 24.0 -- 23.8 2014-09-09 19:12:00
2 1952-09-16 00:00:00 Temperatura 18.5 del 15-09-1952 15:00, Mayor que la Máxima 18.3 16-09-1952 00:00 18.5 -- 18.3 2014-09-09 19:12:00
2 1952-10-05 00:00:00 Temperatura 13.3 del 04-10-1952 16:00, Mayor que la Máxima 13.2 05-10-1952 00:00 13.3 -- 13.2 2014-09-09 19:21:00
2 1952-10-07 00:00:00 Temperatura 12.6 del 06-10-1952 18:00, Mayor que la Máxima 12.2 07-10-1952 00:00 12.6 -- 12.2 2014-09-09 19:21:00
2 1952-10-09 00:00:00 Temperatura 19.0 del 08-10-1952 18:00, Mayor que la Máxima 16.3 09-10-1952 00:00 19.0 -- 16.3 2014-09-09 19:21:00
2 1952-10-10 00:00:00 Temperatura 21.4 del 09-10-1952 20:00, Mayor que la Máxima 21.0 10-10-1952 00:00 21.4 -- 21.0 2014-09-09 19:21:00
2 1952-10-14 00:00:00 Temperatura 20.5 del 13-10-1952 18:00, Mayor que la Máxima 20.0 14-10-1952 00:00 20.5 -- 20.0 2014-09-09 19:21:00
2 1953-03-02 00:00:00 Temperatura 28.7 del 01-03-1953 21:00, Mayor que la Máxima 28.0 02-03-1953 00:00 28.7 -- 28.0 2013-11-05 14:37:00
2 1953-03-03 00:00:00 Temperatura 28.6 del 02-03-1953 21:00, Mayor que la Máxima 28.0 03-03-1953 00:00 28.6 -- 28.0 2013-11-05 14:35:00
2 1953-03-16 00:00:00 Temperatura 29.4 del 15-03-1953 20:00, Mayor que la Máxima 29.2 16-03-1953 00:00 29.4 -- 29.2 2013-11-05 14:29:00
2 1953-04-30 00:00:00 Temperatura 17.8 del 29-04-1953 20:00, Mayor que la Máxima 17.2 30-04-1953 00:00 17.8 -- 17.2 2013-11-05 14:59:00
2 1953-05-06 00:00:00 Temperatura 15.6 del 05-05-1953 18:00, Mayor que la Máxima 15.5 06-05-1953 00:00 15.6 -- 15.5 2013-11-05 17:18:00
2 1953-05-12 00:00:00 Temperatura 18.6 del 11-05-1953 19:00, Mayor que la Máxima 18.5 12-05-1953 00:00 18.6 -- 18.5 2013-11-05 17:15:00
2 1953-06-17 00:00:00 Temperatura 11.0 del 16-06-1953 18:00, Mayor que la Máxima 10.8 17-06-1953 00:00 11.0 -- 10.8 2013-11-05 18:00:00
2 1953-08-02 00:00:00 Temperatura 7.5 del 01-08-1953 21:00, Mayor que la Máxima 7.4 02-08-1953 00:00 7.5 -- 7.4 2013-11-05 20:13:00
2 1953-08-10 00:00:00 Temperatura 19.6 del 09-08-1953 19:00, Mayor que la Máxima 19.5 10-08-1953 00:00 19.6 -- 19.5 2013-11-05 20:06:00
2 1953-08-30 00:00:00 Temperatura 13.6 del 29-08-1953 20:00, Mayor que la Máxima 13.4 30-08-1953 00:00 13.6 -- 13.4 2013-11-05 19:56:00
2 1953-09-07 00:00:00 Temperatura 19.5 del 06-09-1953 20:00, Mayor que la Máxima 19.2 07-09-1953 00:00 19.5 -- 19.2 2013-11-06 13:11:00
2 1953-09-29 00:00:00 Temperatura 13.0 del 28-09-1953 23:00, Mayor que la Máxima 12.5 29-09-1953 00:00 13.0 -- 12.5 2013-11-06 12:50:00
2 1953-10-10 00:00:00 Temperatura 25.4 del 09-10-1953 20:00, Mayor que la Máxima 25.1 10-10-1953 00:00 25.4 -- 25.1 2013-11-06 13:51:00
2 1953-10-17 00:00:00 Temperatura 8.0 del 16-10-1953 15:00, Mayor que la Máxima 7.8 17-10-1953 00:00 8.0 -- 7.8 2013-11-06 13:48:00
2 1953-11-18 00:00:00 Temperatura 25.5 del 17-11-1953 21:00, Mayor que la Máxima 25.3 18-11-1953 00:00 25.5 -- 25.3 2013-11-06 14:23:00
2 1953-11-25 00:00:00 Temperatura 21.2 del 24-11-1953 20:00, Mayor que la Máxima 21.0 25-11-1953 00:00 21.2 -- 21.0 2013-11-06 14:19:00
2 1953-12-31 00:00:00 Temperatura 26.0 del 30-12-1953 19:00, Mayor que la Máxima 25.9 31-12-1953 00:00 26.0 -- 25.9 2013-11-06 15:42:00
2 1955-02-19 00:00:00 Temperatura 30.4 del 18-02-1955 21:00, Mayor que la Máxima 30.2 19-02-1955 00:00 30.4 -- 30.2 2013-05-10 01:36:00
2 1955-06-19 00:00:00 Temperatura 9.5 del 18-06-1955 21:00, Mayor que la Máxima 9.2 19-06-1955 00:00 9.5 -- 9.2 2013-05-10 01:36:00
2 1955-07-21 00:00:00 Temperatura 18.7 del 20-07-1955 18:00, Mayor que la Máxima 18.4 21-07-1955 00:00 18.7 -- 18.4 2013-05-10 01:36:00
2 1955-10-29 00:00:00 Temperatura 22.2 del 28-10-1955 21:00, Mayor que la Máxima 20.8 29-10-1955 00:00 22.2 -- 20.8 2013-05-10 01:36:00
2 1955-12-02 00:00:00 Temperatura 28.0 del 01-12-1955 21:00, Mayor que la Máxima 27.1 02-12-1955 00:00 28.0 -- 27.1 2013-05-10 01:36:00
2 1956-01-27 00:00:00 Temperatura 30.1 del 26-01-1956 18:00, Mayor que la Máxima 23.1 27-01-1956 00:00 30.1 -- 23.1 2013-05-10 01:36:00
2 1956-11-23 00:00:00 Temperatura 27.1 del 22-11-1956 18:00, Mayor que la Máxima 26.9 23-11-1956 00:00 27.1 -- 26.9 2013-05-10 01:36:00
2 1957-10-31 00:00:00 Temperatura 19.8 del 30-10-1957 18:00, Mayor que la Máxima 19.7 31-10-1957 00:00 19.8 -- 19.7 2013-05-10 01:37:00
2 1960-04-13 00:00:00 Temperatura 23.8 del 12-04-1960 18:00, Mayor que la Máxima 20.1 13-04-1960 00:00 23.8 -- 20.1 2013-05-10 01:37:00
2 1960-06-21 00:00:00 Temperatura 10.8 del 20-06-1960 18:00, Mayor que la Máxima 10.7 21-06-1960 00:00 10.8 -- 10.7 2013-05-10 01:37:00
2 1960-08-13 00:00:00 Temperatura 9.0 del 12-08-1960 15:00, Mayor que la Máxima 8.2 13-08-1960 00:00 9.0 -- 8.2 2013-05-10 01:37:00
2 1960-08-23 00:00:00 Temperatura 17.2 del 22-08-1960 21:00, Mayor que la Máxima 16.0 23-08-1960 00:00 17.2 -- 16.0 2013-05-10 01:37:00
2 1960-09-02 00:00:00 Temperatura 20.5 del 01-09-1960 21:00, Mayor que la Máxima 20.4 02-09-1960 00:00 20.5 -- 20.4 2013-05-10 01:37:00
2 1960-10-01 00:00:00 Temperatura 19.9 del 30-09-1960 18:00, Mayor que la Máxima 19.5 01-10-1960 00:00 19.9 -- 19.5 2013-05-10 01:37:00
2 1960-10-18 00:00:00 Temperatura 19.4 del 17-10-1960 21:00, Mayor que la Máxima 19.3 18-10-1960 00:00 19.4 -- 19.3 2013-05-10 01:37:00
2 1965-05-19 00:00:00 Temperatura 10.4 del 18-05-1965 18:00, Mayor que la Máxima 10.2 19-05-1965 00:00 10.4 -- 10.2 2013-05-10 01:37:00
2 1965-07-28 00:00:00 Temperatura 12.6 del 27-07-1965 21:00, Mayor que la Máxima 12.5 28-07-1965 00:00 12.6 -- 12.5 2013-05-10 01:37:00
2 1966-07-10 00:00:00 Temperatura 13.0 del 09-07-1966 15:00, Mayor que la Máxima 12.6 10-07-1966 00:00 13.0 -- 12.6 2013-05-10 01:38:00
2 1966-10-31 00:00:00 Temperatura 28.3 del 30-10-1966 21:00, Mayor que la Máxima 27.8 31-10-1966 00:00 28.3 -- 27.8 2013-05-10 01:38:00
2 1967-04-29 00:00:00 Temperatura 24.2 del 28-04-1967 21:00, Mayor que la Máxima 14.8 29-04-1967 00:00 24.2 -- 14.8 2013-05-10 01:38:00
2 1967-06-28 00:00:00 Temperatura 19.0 del 27-06-1967 21:00, Mayor que la Máxima 15.2 28-06-1967 00:00 19.0 -- 15.2 2013-05-10 01:38:00
2 1968-01-27 00:00:00 Temperatura 31.2 del 26-01-1968 21:00, Mayor que la Máxima 30.8 27-01-1968 00:00 31.2 -- 30.8 2013-05-10 01:38:00
2 1968-03-14 00:00:00 Temperatura 26.1 del 13-03-1968 21:00, Mayor que la Máxima 25.6 14-03-1968 00:00 26.1 -- 25.6 2013-05-10 01:38:00
2 1969-03-04 00:00:00 Temperatura 27.8 del 03-03-1969 20:00, Mayor que la Máxima 27.7 04-03-1969 00:00 27.8 -- 27.7 2013-05-10 01:38:00
2 1969-03-18 00:00:00 Temperatura 24.5 del 17-03-1969 21:00, Mayor que la Máxima 15.0 18-03-1969 00:00 24.5 -- 15.0 2013-05-10 01:38:00
2 1969-06-09 00:00:00 Temperatura 12.5 del 08-06-1969 19:00, Mayor que la Máxima 12.4 09-06-1969 00:00 12.5 -- 12.4 2013-05-10 01:39:00
2 1969-06-15 00:00:00 Temperatura 12.9 del 14-06-1969 21:00, Mayor que la Máxima 12.3 15-06-1969 00:00 12.9 -- 12.3 2013-05-10 01:39:00
2 1969-07-11 00:00:00 Temperatura 18.8 del 10-07-1969 15:00, Mayor que la Máxima 15.8 11-07-1969 00:00 18.8 -- 15.8 2013-05-10 01:39:00
2 1969-07-12 00:00:00 Temperatura 12.8 del 11-07-1969 18:00, Mayor que la Máxima 12.6 12-07-1969 00:00 12.8 -- 12.6 2013-05-10 01:39:00
2 1969-08-08 00:00:00 Temperatura 18.8 del 07-08-1969 19:00, Mayor que la Máxima 18.7 08-08-1969 00:00 18.8 -- 18.7 2013-05-10 01:39:00
2 1969-09-15 00:00:00 Temperatura 24.7 del 14-09-1969 19:00, Mayor que la Máxima 24.6 15-09-1969 00:00 24.7 -- 24.6 2013-05-10 01:39:00
2 1969-10-04 00:00:00 Temperatura 26.6 del 03-10-1969 21:00, Mayor que la Máxima 23.2 04-10-1969 00:00 26.6 -- 23.2 2013-05-10 01:39:00
2 1969-10-05 00:00:00 Temperatura 18.3 del 05-10-1969 00:00, Mayor que la Máxima 12.4 05-10-1969 00:00 18.3 -- 12.4 2013-05-10 01:39:00
2 1969-12-10 00:00:00 Temperatura 28.1 del 09-12-1969 21:00, Mayor que la Máxima 28.0 10-12-1969 00:00 28.1 -- 28.0 2013-05-10 01:39:00
2 1969-12-18 00:00:00 Temperatura 30.5 del 17-12-1969 20:00, Mayor que la Máxima 30.4 18-12-1969 00:00 30.5 -- 30.4 2013-05-10 01:39:00
2 1970-01-09 00:00:00 Temperatura 32.7 del 08-01-1970 21:00, Mayor que la Máxima 32.4 09-01-1970 00:00 32.7 -- 32.4 2013-05-10 01:39:00
2 1970-01-13 00:00:00 Temperatura 28.0 del 12-01-1970 21:00, Mayor que la Máxima 27.8 13-01-1970 00:00 28.0 -- 27.8 2013-05-10 01:39:00
2 1970-01-15 00:00:00 Temperatura 29.6 del 14-01-1970 19:00, Mayor que la Máxima 29.3 15-01-1970 00:00 29.6 -- 29.3 2013-05-10 01:39:00
2 1970-01-27 00:00:00 Temperatura 28.2 del 26-01-1970 19:00, Mayor que la Máxima 27.6 27-01-1970 00:00 28.2 -- 27.6 2013-05-10 01:39:00
2 1970-01-31 00:00:00 Temperatura 29.4 del 30-01-1970 19:00, Mayor que la Máxima 29.2 31-01-1970 00:00 29.4 -- 29.2 2013-05-10 01:39:00
2 1970-02-05 00:00:00 Temperatura 25.6 del 04-02-1970 20:00, Mayor que la Máxima 25.0 05-02-1970 00:00 25.6 -- 25.0 2013-05-10 01:39:00
2 1970-02-21 00:00:00 Temperatura 29.0 del 20-02-1970 20:00, Mayor que la Máxima 28.8 21-02-1970 00:00 29.0 -- 28.8 2013-05-10 01:39:00
2 1970-03-19 00:00:00 Temperatura 26.3 del 18-03-1970 20:00, Mayor que la Máxima 24.4 19-03-1970 00:00 26.3 -- 24.4 2013-05-10 01:39:00
2 1970-06-12 00:00:00 Temperatura 14.0 del 11-06-1970 17:00, Mayor que la Máxima 12.4 12-06-1970 00:00 14.0 -- 12.4 2013-05-10 01:39:00
2 1970-06-15 00:00:00 Temperatura 13.0 del 14-06-1970 21:00, Mayor que la Máxima 12.4 15-06-1970 00:00 13.0 -- 12.4 2013-05-10 01:39:00
2 1970-07-12 00:00:00 Temperatura 14.1 del 11-07-1970 19:00, Mayor que la Máxima 13.6 12-07-1970 00:00 14.1 -- 13.6 2013-05-10 01:39:00
2 1970-08-17 00:00:00 Temperatura 17.3 del 16-08-1970 19:00, Mayor que la Máxima 17.2 17-08-1970 00:00 17.3 -- 17.2 2013-05-10 01:39:00
2 1970-08-23 00:00:00 Temperatura 15.8 del 22-08-1970 20:00, Mayor que la Máxima 14.6 23-08-1970 00:00 15.8 -- 14.6 2013-05-10 01:39:00
2 1970-09-20 00:00:00 Temperatura 19.7 del 19-09-1970 20:00, Mayor que la Máxima 19.1 20-09-1970 00:00 19.7 -- 19.1 2013-05-10 01:39:00
2 1970-09-29 00:00:00 Temperatura 20.8 del 28-09-1970 21:00, Mayor que la Máxima 20.6 29-09-1970 00:00 20.8 -- 20.6 2013-05-10 01:39:00
2 1970-10-05 00:00:00 Temperatura 22.7 del 04-10-1970 21:00, Mayor que la Máxima 21.9 05-10-1970 00:00 22.7 -- 21.9 2013-05-10 01:39:00
2 1970-10-14 00:00:00 Temperatura 20.6 del 13-10-1970 21:00, Mayor que la Máxima 20.3 14-10-1970 00:00 20.6 -- 20.3 2013-05-10 01:39:00
2 1970-12-21 00:00:00 Temperatura 28.1 del 20-12-1970 21:00, Mayor que la Máxima 28.0 21-12-1970 00:00 28.1 -- 28.0 2013-05-10 01:39:00
2 1971-01-05 00:00:00 Temperatura 28.6 del 04-01-1971 21:00, Mayor que la Máxima 28.5 05-01-1971 00:00 28.6 -- 28.5 2013-05-10 01:39:00
2 1971-02-02 00:00:00 Temperatura 29.8 del 01-02-1971 19:00, Mayor que la Máxima 26.6 02-02-1971 00:00 29.8 -- 26.6 2013-05-10 01:39:00
2 1971-04-22 00:00:00 Temperatura 15.7 del 21-04-1971 20:00, Mayor que la Máxima 15.6 22-04-1971 00:00 15.7 -- 15.6 2013-05-10 01:39:00
2 1971-05-14 00:00:00 Temperatura 15.4 del 13-05-1971 19:00, Mayor que la Máxima 15.3 14-05-1971 00:00 15.4 -- 15.3 2013-05-10 01:39:00
2 1971-06-06 00:00:00 Temperatura 17.3 del 05-06-1971 20:00, Mayor que la Máxima 12.8 06-06-1971 00:00 17.3 -- 12.8 2013-05-10 01:39:00
2 1971-06-15 00:00:00 Temperatura 14.8 del 14-06-1971 19:00, Mayor que la Máxima 14.6 15-06-1971 00:00 14.8 -- 14.6 2013-05-10 01:39:00
2 1971-06-17 00:00:00 Temperatura 17.7 del 16-06-1971 20:00, Mayor que la Máxima 17.0 17-06-1971 00:00 17.7 -- 17.0 2013-05-10 01:39:00
2 1971-06-22 00:00:00 Temperatura 12.5 del 21-06-1971 21:00, Mayor que la Máxima 2.8 22-06-1971 00:00 12.5 -- 2.8 2013-05-10 01:39:00
2 1971-07-03 00:00:00 Temperatura 8.7 del 02-07-1971 21:00, Mayor que la Máxima 1.3 03-07-1971 00:00 8.7 -- 1.3 2013-05-10 01:39:00
2 1971-07-11 00:00:00 Temperatura 14.2 del 10-07-1971 19:00, Mayor que la Máxima 13.8 11-07-1971 00:00 14.2 -- 13.8 2013-05-10 01:39:00
2 1971-07-21 00:00:00 Temperatura 18.8 del 20-07-1971 20:00, Mayor que la Máxima 18.5 21-07-1971 00:00 18.8 -- 18.5 2013-05-10 01:39:00
2 1971-08-08 00:00:00 Temperatura 17.4 del 07-08-1971 19:00, Mayor que la Máxima 11.9 08-08-1971 00:00 17.4 -- 11.9 2013-05-10 01:39:00
2 1971-09-06 00:00:00 Temperatura 18.2 del 05-09-1971 20:00, Mayor que la Máxima 16.8 06-09-1971 00:00 18.2 -- 16.8 2013-05-10 01:39:00
2 1971-09-30 00:00:00 Temperatura 13.2 del 29-09-1971 20:00, Mayor que la Máxima 13.0 30-09-1971 00:00 13.2 -- 13.0 2013-05-10 01:39:00
2 1971-10-01 00:00:00 Temperatura 29.3 del 30-09-1971 19:00, Mayor que la Máxima 22.4 01-10-1971 00:00 29.3 -- 22.4 2013-05-10 01:39:00
2 1971-11-03 00:00:00 Temperatura 27.5 del 02-11-1971 20:00, Mayor que la Máxima 27.4 03-11-1971 00:00 27.5 -- 27.4 2013-05-10 01:39:00
2 1971-11-29 00:00:00 Temperatura 28.6 del 28-11-1971 20:00, Mayor que la Máxima 24.3 29-11-1971 00:00 28.6 -- 24.3 2013-05-10 01:39:00
2 1971-12-02 00:00:00 Temperatura 30.3 del 01-12-1971 20:00, Mayor que la Máxima 30.2 02-12-1971 00:00 30.3 -- 30.2 2013-05-10 01:39:00
2 1971-12-09 00:00:00 Temperatura 29.2 del 08-12-1971 20:00, Mayor que la Máxima 29.0 09-12-1971 00:00 29.2 -- 29.0 2013-05-10 01:39:00
2 1971-12-20 00:00:00 Temperatura 26.3 del 19-12-1971 18:00, Mayor que la Máxima 25.6 20-12-1971 00:00 26.3 -- 25.6 2013-05-10 01:39:00
2 1971-12-27 00:00:00 Temperatura 28.6 del 26-12-1971 20:00, Mayor que la Máxima 21.2 27-12-1971 00:00 28.6 -- 21.2 2013-05-10 01:39:00
2 1972-01-24 00:00:00 Temperatura 30.7 del 23-01-1972 20:00, Mayor que la Máxima 30.2 24-01-1972 00:00 30.7 -- 30.2 2013-05-10 01:39:00
2 1972-02-11 00:00:00 Temperatura 29.2 del 10-02-1972 21:00, Mayor que la Máxima 29.0 11-02-1972 00:00 29.2 -- 29.0 2013-05-10 01:39:00
2 1972-03-26 00:00:00 Temperatura 21.1 del 25-03-1972 18:00, Mayor que la Máxima 20.2 26-03-1972 00:00 21.1 -- 20.2 2013-05-10 01:39:00
2 1972-04-02 00:00:00 Temperatura 26.6 del 01-04-1972 20:00, Mayor que la Máxima 26.0 02-04-1972 00:00 26.6 -- 26.0 2013-05-10 01:39:00
2 1972-04-24 00:00:00 Temperatura 10.6 del 23-04-1972 14:00, Mayor que la Máxima 10.2 24-04-1972 00:00 10.6 -- 10.2 2013-05-10 01:39:00
2 1972-05-13 00:00:00 Temperatura 20.6 del 12-05-1972 20:00, Mayor que la Máxima 2.1 13-05-1972 00:00 20.6 -- 2.1 2013-05-10 01:39:00
2 1972-06-22 00:00:00 Temperatura 19.3 del 21-06-1972 21:00, Mayor que la Máxima 18.4 22-06-1972 00:00 19.3 -- 18.4 2013-05-10 01:39:00
2 1972-07-30 00:00:00 Temperatura 21.8 del 29-07-1972 19:00, Mayor que la Máxima 21.5 30-07-1972 00:00 21.8 -- 21.5 2013-05-10 01:40:00
2 1972-08-02 00:00:00 Temperatura 13.7 del 01-08-1972 17:00, Mayor que la Máxima 13.1 02-08-1972 00:00 13.7 -- 13.1 2013-05-10 01:40:00
2 1972-08-23 00:00:00 Temperatura 16.6 del 22-08-1972 20:00, Mayor que la Máxima 16.2 23-08-1972 00:00 16.6 -- 16.2 2013-05-10 01:40:00
2 1972-09-01 00:00:00 Temperatura 19.9 del 31-08-1972 21:00, Mayor que la Máxima 19.7 01-09-1972 00:00 19.9 -- 19.7 2013-05-10 01:40:00
2 1972-10-05 00:00:00 Temperatura 20.7 del 04-10-1972 20:00, Mayor que la Máxima 20.4 05-10-1972 00:00 20.7 -- 20.4 2013-05-10 01:40:00
2 1972-10-12 00:00:00 Temperatura 19.1 del 11-10-1972 22:00, Mayor que la Máxima 15.5 12-10-1972 00:00 19.1 -- 15.5 2013-05-10 01:40:00
2 1972-10-25 00:00:00 Temperatura 24.8 del 24-10-1972 19:00, Mayor que la Máxima 23.8 25-10-1972 00:00 24.8 -- 23.8 2013-05-10 01:40:00
2 1973-03-30 00:00:00 Temperatura 14.5 del 29-03-1973 23:00, Mayor que la Máxima 14.4 30-03-1973 00:00 14.5 -- 14.4 2013-05-10 01:40:00
2 1973-05-22 00:00:00 Temperatura 18.0 del 21-05-1973 20:00, Mayor que la Máxima 17.6 22-05-1973 00:00 18.0 -- 17.6 2013-05-10 01:40:00
2 1973-05-25 00:00:00 Temperatura 20.9 del 24-05-1973 18:00, Mayor que la Máxima 20.3 25-05-1973 00:00 20.9 -- 20.3 2013-05-10 01:40:00
2 1973-05-27 00:00:00 Temperatura 15.8 del 26-05-1973 19:00, Mayor que la Máxima 14.4 27-05-1973 00:00 15.8 -- 14.4 2013-05-10 01:40:00
2 1973-08-04 00:00:00 Temperatura 21.0 del 03-08-1973 21:00, Mayor que la Máxima 17.3 04-08-1973 00:00 21.0 -- 17.3 2013-05-10 01:40:00
2 1973-08-13 00:00:00 Temperatura 14.8 del 12-08-1973 18:00, Mayor que la Máxima 9.4 13-08-1973 00:00 14.8 -- 9.4 2013-05-10 01:40:00
2 1973-08-23 00:00:00 Temperatura 16.4 del 22-08-1973 19:00, Mayor que la Máxima 15.7 23-08-1973 00:00 16.4 -- 15.7 2013-05-10 01:40:00
2 1973-11-17 00:00:00 Temperatura 24.9 del 16-11-1973 21:00, Mayor que la Máxima 23.6 17-11-1973 00:00 24.9 -- 23.6 2013-05-10 01:40:00
2 1973-11-20 00:00:00 Temperatura 30.4 del 19-11-1973 19:00, Mayor que la Máxima 30.2 20-11-1973 00:00 30.4 -- 30.2 2013-05-10 01:40:00
2 1973-12-23 00:00:00 Temperatura 27.9 del 22-12-1973 19:00, Mayor que la Máxima 27.4 23-12-1973 00:00 27.9 -- 27.4 2013-05-10 01:40:00
2 1974-04-23 00:00:00 Temperatura 21.5 del 22-04-1974 19:00, Mayor que la Máxima 21.4 23-04-1974 00:00 21.5 -- 21.4 2013-05-10 01:40:00
2 1974-04-26 00:00:00 Temperatura 19.1 del 25-04-1974 20:00, Mayor que la Máxima 19.0 26-04-1974 00:00 19.1 -- 19.0 2013-05-10 01:40:00
2 1974-06-10 00:00:00 Temperatura 8.4 del 09-06-1974 19:00, Mayor que la Máxima 8.3 10-06-1974 00:00 8.4 -- 8.3 2013-05-10 01:40:00
2 1974-07-10 00:00:00 Temperatura 16.0 del 09-07-1974 20:00, Mayor que la Máxima 15.6 10-07-1974 00:00 16.0 -- 15.6 2013-05-10 01:40:00
2 1974-09-05 00:00:00 Temperatura 16.2 del 04-09-1974 20:00, Mayor que la Máxima 15.9 05-09-1974 00:00 16.2 -- 15.9 2013-05-10 01:40:00
2 1974-10-19 00:00:00 Temperatura 21.1 del 18-10-1974 19:00, Mayor que la Máxima 20.7 19-10-1974 00:00 21.1 -- 20.7 2013-05-10 01:40:00
2 1974-10-26 00:00:00 Temperatura 13.6 del 25-10-1974 19:00, Mayor que la Máxima 13.5 26-10-1974 00:00 13.6 -- 13.5 2013-05-10 01:40:00
2 1975-01-20 00:00:00 Temperatura 27.6 del 19-01-1975 20:00, Mayor que la Máxima 27.5 20-01-1975 00:00 27.6 -- 27.5 2013-05-10 01:40:00
2 1975-05-17 00:00:00 Temperatura 19.0 del 16-05-1975 20:00, Mayor que la Máxima 18.2 17-05-1975 00:00 19.0 -- 18.2 2013-05-10 01:40:00
2 1975-05-31 00:00:00 Temperatura 10.7 del 30-05-1975 13:00, Mayor que la Máxima 10.5 31-05-1975 00:00 10.7 -- 10.5 2013-05-10 01:40:00
2 1975-06-17 00:00:00 Temperatura 20.8 del 16-06-1975 21:00, Mayor que la Máxima 20.0 17-06-1975 00:00 20.8 -- 20.0 2013-05-10 01:40:00
2 1975-06-27 00:00:00 Temperatura 11.4 del 26-06-1975 16:00, Mayor que la Máxima 11.0 27-06-1975 00:00 11.4 -- 11.0 2013-05-10 01:40:00
2 1975-08-08 00:00:00 Temperatura 10.0 del 07-08-1975 20:00, Mayor que la Máxima 3.9 08-08-1975 00:00 10.0 -- 3.9 2013-05-10 01:40:00
2 1975-09-11 00:00:00 Temperatura 16.9 del 10-09-1975 19:00, Mayor que la Máxima 16.4 11-09-1975 00:00 16.9 -- 16.4 2013-05-10 01:40:00
2 1975-09-19 00:00:00 Temperatura 12.6 del 18-09-1975 20:00, Mayor que la Máxima 10.9 19-09-1975 00:00 12.6 -- 10.9 2013-05-10 01:40:00
2 1975-09-30 00:00:00 Temperatura 17.6 del 29-09-1975 20:00, Mayor que la Máxima 17.2 30-09-1975 00:00 17.6 -- 17.2 2013-05-10 01:40:00
2 1976-02-03 00:00:00 Temperatura 28.4 del 02-02-1976 21:00, Mayor que la Máxima 26.6 03-02-1976 00:00 28.4 -- 26.6 2013-05-10 01:41:00
2 1976-03-31 00:00:00 Temperatura 13.1 del 30-03-1976 16:00, Mayor que la Máxima 13.0 31-03-1976 00:00 13.1 -- 13.0 2013-05-10 01:41:00
2 1976-07-27 00:00:00 Temperatura 11.0 del 26-07-1976 19:00, Mayor que la Máxima 10.9 27-07-1976 00:00 11.0 -- 10.9 2013-05-10 01:41:00
2 1976-08-02 00:00:00 Temperatura 16.1 del 01-08-1976 20:00, Mayor que la Máxima 15.4 02-08-1976 00:00 16.1 -- 15.4 2013-05-10 01:41:00
2 1976-08-21 00:00:00 Temperatura 23.6 del 20-08-1976 21:00, Mayor que la Máxima 21.5 21-08-1976 00:00 23.6 -- 21.5 2013-05-10 01:41:00
2 1976-09-18 00:00:00 Temperatura 25.0 del 17-09-1976 20:00, Mayor que la Máxima 24.9 18-09-1976 00:00 25.0 -- 24.9 2013-05-10 01:41:00
2 1976-10-16 00:00:00 Temperatura 14.0 del 15-10-1976 17:00, Mayor que la Máxima 13.8 16-10-1976 00:00 14.0 -- 13.8 2013-05-10 01:41:00
2 1976-10-21 00:00:00 Temperatura 27.1 del 20-10-1976 21:00, Mayor que la Máxima 27.0 21-10-1976 00:00 27.1 -- 27.0 2013-05-10 01:41:00
2 1977-01-27 00:00:00 Temperatura 27.9 del 26-01-1977 20:00, Mayor que la Máxima 27.6 27-01-1977 00:00 27.9 -- 27.6 2013-05-10 01:41:00
2 1977-05-28 00:00:00 Temperatura 14.0 del 27-05-1977 17:00, Mayor que la Máxima 13.7 28-05-1977 00:00 14.0 -- 13.7 2013-05-10 01:41:00
2 1977-09-18 00:00:00 Temperatura 19.9 del 17-09-1977 19:00, Mayor que la Máxima 12.1 18-09-1977 00:00 19.9 -- 12.1 2013-05-10 01:41:00
2 1977-11-20 00:00:00 Temperatura 19.3 del 19-11-1977 16:00, Mayor que la Máxima 19.2 20-11-1977 00:00 19.3 -- 19.2 2013-05-10 01:41:00
2 1977-12-11 00:00:00 Temperatura 26.8 del 10-12-1977 18:00, Mayor que la Máxima 26.7 11-12-1977 00:00 26.8 -- 26.7 2013-05-10 01:41:00
2 1978-01-17 00:00:00 Temperatura 32.0 del 16-01-1978 20:00, Mayor que la Máxima 31.7 17-01-1978 00:00 32.0 -- 31.7 2013-05-10 01:41:00
2 1978-03-04 00:00:00 Temperatura 29.6 del 03-03-1978 19:00, Mayor que la Máxima 29.4 04-03-1978 00:00 29.6 -- 29.4 2013-05-10 01:41:00
2 1978-07-08 00:00:00 Temperatura 11.4 del 07-07-1978 23:00, Mayor que la Máxima 11.3 08-07-1978 00:00 11.4 -- 11.3 2013-05-10 01:41:00
2 1978-07-13 00:00:00 Temperatura 14.7 del 12-07-1978 19:00, Mayor que la Máxima 14.6 13-07-1978 00:00 14.7 -- 14.6 2013-05-10 01:41:00
2 1978-09-06 00:00:00 Temperatura 18.7 del 05-09-1978 17:00, Mayor que la Máxima 18.6 06-09-1978 00:00 18.7 -- 18.6 2013-05-10 01:41:00
2 1979-05-25 00:00:00 Temperatura 22.0 del 24-05-1979 18:00, Mayor que la Máxima 21.9 25-05-1979 00:00 22.0 -- 21.9 2013-05-10 01:42:00
2 1979-08-05 00:00:00 Temperatura 15.4 del 04-08-1979 20:00, Mayor que la Máxima 13.4 05-08-1979 00:00 15.4 -- 13.4 2013-05-10 01:42:00
2 1979-08-30 00:00:00 Temperatura 14.4 del 29-08-1979 18:00, Mayor que la Máxima 4.6 30-08-1979 00:00 14.4 -- 4.6 2013-05-10 01:42:00
2 1979-11-08 00:00:00 Temperatura 14.5 del 07-11-1979 20:00, Mayor que la Máxima 14.3 08-11-1979 00:00 14.5 -- 14.3 2013-05-10 01:42:00
2 1979-12-11 00:00:00 Temperatura 28.2 del 10-12-1979 17:00, Mayor que la Máxima 25.6 11-12-1979 00:00 28.2 -- 25.6 2013-05-10 01:42:00
2 1980-04-19 00:00:00 Temperatura 23.7 del 18-04-1980 20:00, Mayor que la Máxima 23.5 19-04-1980 00:00 23.7 -- 23.5 2013-05-10 01:42:00
2 1980-07-11 00:00:00 Temperatura 24.0 del 10-07-1980 13:00, Mayor que la Máxima 13.7 11-07-1980 00:00 24.0 -- 13.7 2013-05-10 01:42:00
2 1980-08-02 00:00:00 Temperatura 26.0 del 01-08-1980 20:00, Mayor que la Máxima 20.4 02-08-1980 00:00 26.0 -- 20.4 2013-05-10 01:42:00
2 1980-08-06 00:00:00 Temperatura 18.8 del 05-08-1980 20:00, Mayor que la Máxima 18.7 06-08-1980 00:00 18.8 -- 18.7 2013-05-10 01:42:00
2 1980-08-17 00:00:00 Temperatura 17.2 del 16-08-1980 20:00, Mayor que la Máxima 17.1 17-08-1980 00:00 17.2 -- 17.1 2013-05-10 01:42:00
2 1980-09-18 00:00:00 Temperatura 12.7 del 17-09-1980 19:00, Mayor que la Máxima 12.6 18-09-1980 00:00 12.7 -- 12.6 2013-05-10 01:42:00
2 1980-09-30 00:00:00 Temperatura 13.0 del 29-09-1980 13:00, Mayor que la Máxima 11.5 30-09-1980 00:00 13.0 -- 11.5 2013-05-10 01:42:00
2 1980-10-01 00:00:00 Temperatura 5.6 del 30-09-1980 14:00, Mayor que la Máxima 5.4 01-10-1980 00:00 5.6 -- 5.4 2013-05-10 01:42:00
2 1980-11-20 00:00:00 Temperatura 18.9 del 19-11-1980 22:00, Mayor que la Máxima 18.6 20-11-1980 00:00 18.9 -- 18.6 2013-05-10 01:42:00
2 1980-11-27 00:00:00 Temperatura 27.4 del 26-11-1980 19:00, Mayor que la Máxima 27.2 27-11-1980 00:00 27.4 -- 27.2 2013-05-10 01:42:00
2 1981-02-12 00:00:00 Temperatura 26.2 del 11-02-1981 19:00, Mayor que la Máxima 23.2 12-02-1981 00:00 26.2 -- 23.2 2013-05-10 01:42:00
2 1981-04-09 00:00:00 Temperatura 28.1 del 08-04-1981 20:00, Mayor que la Máxima 23.6 09-04-1981 00:00 28.1 -- 23.6 2013-05-10 01:42:00
2 1981-04-19 00:00:00 Temperatura 23.4 del 18-04-1981 20:00, Mayor que la Máxima 22.8 19-04-1981 00:00 23.4 -- 22.8 2013-05-10 01:42:00
2 1981-07-08 00:00:00 Temperatura 17.6 del 07-07-1981 19:00, Mayor que la Máxima 13.7 08-07-1981 00:00 17.6 -- 13.7 2013-05-10 01:42:00
2 1981-08-01 00:00:00 Temperatura 15.2 del 31-07-1981 20:00, Mayor que la Máxima 15.1 01-08-1981 00:00 15.2 -- 15.1 2013-05-10 01:42:00
2 1982-04-09 00:00:00 Temperatura 25.7 del 08-04-1982 19:00, Mayor que la Máxima 25.6 09-04-1982 00:00 25.7 -- 25.6 2013-05-10 01:43:00
2 1982-05-03 00:00:00 Temperatura 25.4 del 02-05-1982 20:00, Mayor que la Máxima 25.3 03-05-1982 00:00 25.4 -- 25.3 2013-05-10 01:43:00
2 1982-05-19 00:00:00 Temperatura 20.1 del 18-05-1982 20:00, Mayor que la Máxima 19.8 19-05-1982 00:00 20.1 -- 19.8 2013-05-10 01:43:00
2 1982-05-27 00:00:00 Temperatura 20.2 del 26-05-1982 19:00, Mayor que la Máxima 20.1 27-05-1982 00:00 20.2 -- 20.1 2013-05-10 01:43:00
2 1982-07-01 00:00:00 Temperatura 18.8 del 30-06-1982 19:00, Mayor que la Máxima 18.6 01-07-1982 00:00 18.8 -- 18.6 2013-05-10 01:43:00
2 1982-07-09 00:00:00 Temperatura 11.2 del 08-07-1982 14:00, Mayor que la Máxima 10.4 09-07-1982 00:00 11.2 -- 10.4 2013-05-10 01:43:00
2 1982-07-12 00:00:00 Temperatura 14.0 del 11-07-1982 19:00, Mayor que la Máxima 13.8 12-07-1982 00:00 14.0 -- 13.8 2013-05-10 01:43:00
2 1982-07-17 00:00:00 Temperatura 21.4 del 16-07-1982 23:00, Mayor que la Máxima 13.6 17-07-1982 00:00 21.4 -- 13.6 2013-05-10 01:43:00
2 1982-08-06 00:00:00 Temperatura 8.9 del 05-08-1982 15:00, Mayor que la Máxima 8.8 06-08-1982 00:00 8.9 -- 8.8 2013-05-10 01:43:00
2 1982-08-24 00:00:00 Temperatura 18.0 del 23-08-1982 18:00, Mayor que la Máxima 17.9 24-08-1982 00:00 18.0 -- 17.9 2013-05-10 01:43:00
2 1982-11-07 00:00:00 Temperatura 22.5 del 06-11-1982 18:00, Mayor que la Máxima 22.4 07-11-1982 00:00 22.5 -- 22.4 2013-05-10 01:43:00
2 1982-11-11 00:00:00 Temperatura 18.5 del 10-11-1982 21:00, Mayor que la Máxima 18.4 11-11-1982 00:00 18.5 -- 18.4 2013-05-10 01:43:00
2 1983-01-25 00:00:00 Temperatura 23.0 del 24-01-1983 21:00, Mayor que la Máxima 22.8 25-01-1983 00:00 23.0 -- 22.8 2013-05-10 01:43:00
2 1983-02-04 00:00:00 Temperatura 31.2 del 03-02-1983 21:00, Mayor que la Máxima 31.0 04-02-1983 00:00 31.2 -- 31.0 2013-05-10 01:43:00
2 1983-02-11 00:00:00 Temperatura 28.5 del 10-02-1983 20:00, Mayor que la Máxima 28.0 11-02-1983 00:00 28.5 -- 28.0 2013-05-10 01:43:00
2 1983-05-26 00:00:00 Temperatura 12.7 del 25-05-1983 18:00, Mayor que la Máxima 12.6 26-05-1983 00:00 12.7 -- 12.6 2013-05-10 01:43:00
2 1983-05-28 00:00:00 Temperatura 10.8 del 27-05-1983 18:00, Mayor que la Máxima 10.6 28-05-1983 00:00 10.8 -- 10.6 2013-05-10 01:43:00
2 1983-06-11 00:00:00 Temperatura 12.3 del 10-06-1983 19:00, Mayor que la Máxima 12.2 11-06-1983 00:00 12.3 -- 12.2 2013-05-10 01:43:00
2 1983-06-19 00:00:00 Temperatura 10.4 del 18-06-1983 13:00, Mayor que la Máxima 10.2 19-06-1983 00:00 10.4 -- 10.2 2013-05-10 01:43:00
2 1983-07-24 00:00:00 Temperatura 21.2 del 23-07-1983 22:00, Mayor que la Máxima 14.8 24-07-1983 00:00 21.2 -- 14.8 2013-05-10 01:43:00
2 1983-08-08 00:00:00 Temperatura 16.4 del 07-08-1983 18:00, Mayor que la Máxima 15.4 08-08-1983 00:00 16.4 -- 15.4 2013-05-10 01:43:00
2 1983-08-14 00:00:00 Temperatura 15.6 del 13-08-1983 20:00, Mayor que la Máxima 15.5 14-08-1983 00:00 15.6 -- 15.5 2013-05-10 01:43:00
2 1983-10-04 00:00:00 Temperatura 28.8 del 03-10-1983 22:00, Mayor que la Máxima 26.2 04-10-1983 00:00 28.8 -- 26.2 2013-05-10 01:43:00
2 1983-10-12 00:00:00 Temperatura 23.4 del 11-10-1983 18:00, Mayor que la Máxima 23.0 12-10-1983 00:00 23.4 -- 23.0 2013-05-10 01:43:00
2 1983-10-21 00:00:00 Temperatura 21.2 del 20-10-1983 19:00, Mayor que la Máxima 21.0 21-10-1983 00:00 21.2 -- 21.0 2013-05-10 01:43:00
2 1983-11-27 00:00:00 Temperatura 26.0 del 26-11-1983 20:00, Mayor que la Máxima 25.7 27-11-1983 00:00 26.0 -- 25.7 2013-05-10 01:43:00
2 1984-04-13 00:00:00 Temperatura 26.4 del 12-04-1984 23:00, Mayor que la Máxima 25.6 13-04-1984 00:00 26.4 -- 25.6 2013-05-10 01:43:00
2 1984-04-17 00:00:00 Temperatura 18.9 del 16-04-1984 20:00, Mayor que la Máxima 18.6 17-04-1984 00:00 18.9 -- 18.6 2013-05-10 01:43:00
2 1984-04-29 00:00:00 Temperatura 18.0 del 28-04-1984 20:00, Mayor que la Máxima 17.9 29-04-1984 00:00 18.0 -- 17.9 2013-05-10 01:43:00
2 1984-06-26 00:00:00 Temperatura 8.5 del 25-06-1984 20:00, Mayor que la Máxima 8.3 26-06-1984 00:00 8.5 -- 8.3 2013-05-10 01:43:00
2 1984-08-18 00:00:00 Temperatura 12.1 del 17-08-1984 16:00, Mayor que la Máxima 12.0 18-08-1984 00:00 12.1 -- 12.0 2013-05-10 01:43:00
2 1984-09-28 00:00:00 Temperatura 22.6 del 27-09-1984 20:00, Mayor que la Máxima 22.5 28-09-1984 00:00 22.6 -- 22.5 2013-05-10 01:43:00
2 1984-10-04 00:00:00 Temperatura 13.6 del 03-10-1984 18:00, Mayor que la Máxima 13.5 04-10-1984 00:00 13.6 -- 13.5 2013-05-10 01:43:00
2 1984-11-08 00:00:00 Temperatura 11.4 del 07-11-1984 13:00, Mayor que la Máxima 1.2 08-11-1984 00:00 11.4 -- 1.2 2013-05-10 01:43:00
2 1985-02-13 00:00:00 Temperatura 27.5 del 12-02-1985 20:00, Mayor que la Máxima 27.4 13-02-1985 00:00 27.5 -- 27.4 2013-05-10 01:43:00
2 1985-05-16 00:00:00 Temperatura 26.0 del 15-05-1985 23:00, Mayor que la Máxima 24.6 16-05-1985 00:00 26.0 -- 24.6 2013-05-10 01:43:00
2 1985-07-16 00:00:00 Temperatura 9.7 del 15-07-1985 14:00, Mayor que la Máxima 9.6 16-07-1985 00:00 9.7 -- 9.6 2013-05-10 01:44:00
2 1986-02-07 00:00:00 Temperatura 29.4 del 06-02-1986 20:00, Mayor que la Máxima 28.8 07-02-1986 00:00 29.4 -- 28.8 2013-05-10 01:44:00
2 1986-05-21 00:00:00 Temperatura 15.8 del 20-05-1986 17:00, Mayor que la Máxima 15.6 21-05-1986 00:00 15.8 -- 15.6 2013-05-10 01:44:00
2 1986-07-18 00:00:00 Temperatura 16.4 del 17-07-1986 16:00, Mayor que la Máxima 12.6 18-07-1986 00:00 16.4 -- 12.6 2013-05-10 01:44:00
2 1986-07-22 00:00:00 Temperatura 25.6 del 21-07-1986 16:00, Mayor que la Máxima 19.8 22-07-1986 00:00 25.6 -- 19.8 2013-05-10 01:44:00
2 1986-07-30 00:00:00 Temperatura 12.4 del 29-07-1986 21:00, Mayor que la Máxima 12.3 30-07-1986 00:00 12.4 -- 12.3 2013-05-10 01:44:00
2 1986-09-17 00:00:00 Temperatura 16.1 del 16-09-1986 15:00, Mayor que la Máxima 13.0 17-09-1986 00:00 16.1 -- 13.0 2013-05-10 01:44:00
2 1986-11-08 00:00:00 Temperatura 12.2 del 07-11-1986 16:00, Mayor que la Máxima 12.0 08-11-1986 00:00 12.2 -- 12.0 2013-05-10 01:44:00
2 1986-11-14 00:00:00 Temperatura 25.0 del 13-11-1986 18:00, Mayor que la Máxima 24.6 14-11-1986 00:00 25.0 -- 24.6 2013-05-10 01:44:00
2 1986-12-02 00:00:00 Temperatura 26.0 del 01-12-1986 20:00, Mayor que la Máxima 20.6 02-12-1986 00:00 26.0 -- 20.6 2013-05-10 01:44:00
2 1987-03-13 00:00:00 Temperatura 23.6 del 12-03-1987 19:00, Mayor que la Máxima 23.2 13-03-1987 00:00 23.6 -- 23.2 2013-05-10 01:44:00
2 1987-06-16 00:00:00 Temperatura 15.2 del 15-06-1987 15:00, Mayor que la Máxima 11.0 16-06-1987 00:00 15.2 -- 11.0 2013-05-10 01:44:00
2 1987-06-23 00:00:00 Temperatura 17.0 del 22-06-1987 19:00, Mayor que la Máxima 16.8 23-06-1987 00:00 17.0 -- 16.8 2013-05-10 01:44:00
2 1987-07-10 00:00:00 Temperatura 16.5 del 09-07-1987 20:00, Mayor que la Máxima 13.4 10-07-1987 00:00 16.5 -- 13.4 2013-05-10 01:44:00
2 1987-08-15 00:00:00 Temperatura 11.0 del 14-08-1987 19:00, Mayor que la Máxima 10.8 15-08-1987 00:00 11.0 -- 10.8 2013-05-10 01:44:00
2 1987-12-02 00:00:00 Temperatura 28.7 del 01-12-1987 21:00, Mayor que la Máxima 28.4 02-12-1987 00:00 28.7 -- 28.4 2013-05-10 01:44:00
2 1988-02-01 00:00:00 Temperatura 30.5 del 31-01-1988 19:00, Mayor que la Máxima 30.4 01-02-1988 00:00 30.5 -- 30.4 2013-05-10 01:44:00
2 1988-04-24 00:00:00 Temperatura 22.0 del 23-04-1988 19:00, Mayor que la Máxima 21.7 24-04-1988 00:00 22.0 -- 21.7 2013-05-10 01:44:00
2 1988-05-28 00:00:00 Temperatura 9.3 del 27-05-1988 18:00, Mayor que la Máxima 8.6 28-05-1988 00:00 9.3 -- 8.6 2013-05-10 01:44:00
2 1988-07-28 00:00:00 Temperatura 11.0 del 27-07-1988 20:00, Mayor que la Máxima 10.8 28-07-1988 00:00 11.0 -- 10.8 2013-05-10 01:44:00
2 1989-03-03 00:00:00 Temperatura 26.4 del 02-03-1989 18:00, Mayor que la Máxima 26.2 03-03-1989 00:00 26.4 -- 26.2 2013-05-10 01:45:00
2 1989-05-05 00:00:00 Temperatura 12.6 del 04-05-1989 16:00, Mayor que la Máxima 12.5 05-05-1989 00:00 12.6 -- 12.5 2013-05-10 01:45:00
2 1989-09-22 00:00:00 Temperatura 15.0 del 21-09-1989 17:00, Mayor que la Máxima 14.4 22-09-1989 00:00 15.0 -- 14.4 2013-05-10 01:45:00
2 1990-02-15 00:00:00 Temperatura 25.8 del 14-02-1990 20:00, Mayor que la Máxima 25.6 15-02-1990 00:00 25.8 -- 25.6 2013-05-10 01:45:00
2 1990-09-08 00:00:00 Temperatura 17.5 del 07-09-1990 18:00, Mayor que la Máxima 17.2 08-09-1990 00:00 17.5 -- 17.2 2013-05-10 01:45:00
2 1952-01-28 12:00:00 Temperatura 13.2 del 28-01-1952 06:00, Menor que la Mínima 13.3 28-01-1952 12:00 13.2 -- 13.3 2014-08-19 16:00:00
2 1952-02-05 12:00:00 Temperatura 13.2 del 05-02-1952 06:00, Menor que la Mínima 13.4 05-02-1952 12:00 13.2 -- 13.4 2014-08-19 19:16:00
2 1952-02-21 12:00:00 Temperatura 10.1 del 21-02-1952 06:00, Menor que la Mínima 11.1 21-02-1952 12:00 10.1 -- 11.1 2014-08-20 14:34:00
2 1952-02-24 12:00:00 Temperatura 10.5 del 24-02-1952 06:00, Menor que la Mínima 11.0 24-02-1952 12:00 10.5 -- 11.0 2014-08-20 15:30:00
2 1952-03-28 12:00:00 Temperatura 9.0 del 28-03-1952 06:00, Menor que la Mínima 10.0 28-03-1952 12:00 9.0 -- 10.0 2014-08-21 18:47:00
2 1952-05-12 12:00:00 Temperatura 9.5 del 12-05-1952 12:00, Menor que la Mínima 10.0 12-05-1952 12:00 9.5 -- 10.0 2014-08-25 18:56:00
2 1952-05-16 12:00:00 Temperatura 9.0 del 16-05-1952 09:00, Menor que la Mínima 9.4 16-05-1952 12:00 9.0 -- 9.4 2014-08-25 19:59:00
2 1952-05-23 12:00:00 Temperatura 5.9 del 23-05-1952 07:00, Menor que la Mínima 6.5 23-05-1952 12:00 5.9 -- 6.5 2014-08-26 13:37:00
2 1952-05-24 12:00:00 Temperatura 6.2 del 24-05-1952 07:00, Menor que la Mínima 6.3 24-05-1952 12:00 6.2 -- 6.3 2014-08-26 13:45:00
2 1952-05-27 12:00:00 Temperatura 7.0 del 27-05-1952 09:00, Menor que la Mínima 7.6 27-05-1952 12:00 7.0 -- 7.6 2014-08-26 14:07:00
2 1952-05-29 12:00:00 Temperatura 6.9 del 29-05-1952 06:00, Menor que la Mínima 7.0 29-05-1952 12:00 6.9 -- 7.0 2014-08-26 14:50:00
2 1952-05-31 12:00:00 Temperatura 6.7 del 31-05-1952 06:00, Menor que la Mínima 7.0 31-05-1952 12:00 6.7 -- 7.0 2014-08-26 15:39:00
2 1952-06-06 12:00:00 Temperatura 8.9 del 06-06-1952 06:00, Menor que la Mínima 9.0 06-06-1952 12:00 8.9 -- 9.0 2014-08-26 18:55:00
2 1952-06-14 12:00:00 Temperatura 4.5 del 14-06-1952 09:00, Menor que la Mínima 5.0 14-06-1952 12:00 4.5 -- 5.0 2014-08-27 13:46:00
2 1952-07-01 12:00:00 Temperatura 5.0 del 01-07-1952 09:00, Menor que la Mínima 5.5 01-07-1952 12:00 5.0 -- 5.5 2014-08-28 15:15:00
2 1952-07-20 12:00:00 Temperatura 2.0 del 20-07-1952 08:00, Menor que la Mínima 2.4 20-07-1952 12:00 2.0 -- 2.4 2014-08-28 20:51:00
2 1952-07-30 12:00:00 Temperatura 4.0 del 30-07-1952 09:00, Menor que la Mínima 4.2 30-07-1952 12:00 4.0 -- 4.2 2014-08-29 15:28:00
2 1952-07-31 12:00:00 Temperatura 3.0 del 31-07-1952 07:00, Menor que la Mínima 3.4 31-07-1952 12:00 3.0 -- 3.4 2014-08-29 15:52:00
2 1952-08-09 12:00:00 Temperatura 5.5 del 09-08-1952 09:00, Menor que la Mínima 6.4 09-08-1952 12:00 5.5 -- 6.4 2014-08-29 20:07:00
2 1952-08-13 12:00:00 Temperatura 4.4 del 13-08-1952 09:00, Menor que la Mínima 4.5 13-08-1952 12:00 4.4 -- 4.5 2014-09-01 14:48:00
2 1952-08-17 12:00:00 Temperatura 2.3 del 17-08-1952 06:00, Menor que la Mínima 2.5 17-08-1952 12:00 2.3 -- 2.5 2014-09-01 15:54:00
2 1952-09-17 12:00:00 Temperatura 7.0 del 17-09-1952 10:00, Menor que la Mínima 8.1 17-09-1952 12:00 7.0 -- 8.1 2014-09-02 19:56:00
2 1952-11-20 12:00:00 Temperatura 11.0 del 20-11-1952 10:00, Menor que la Mínima 12.0 20-11-1952 12:00 11.0 -- 12.0 2014-09-05 18:41:00
2 1952-12-12 12:00:00 Temperatura 10.6 del 12-12-1952 10:00, Menor que la Mínima 10.8 12-12-1952 12:00 10.6 -- 10.8 2014-09-08 19:18:00
2 1953-02-22 12:00:00 Temperatura 10.4 del 22-02-1953 11:00, Menor que la Mínima 10.5 22-02-1953 12:00 10.4 -- 10.5 2013-09-05 19:19:00
2 1953-04-06 12:00:00 Temperatura 8.0 del 06-04-1953 11:00, Menor que la Mínima 8.5 06-04-1953 12:00 8.0 -- 8.5 2013-09-10 19:11:00
2 1953-04-09 12:00:00 Temperatura 8.3 del 09-04-1953 10:00, Menor que la Mínima 9.5 09-04-1953 12:00 8.3 -- 9.5 2013-09-10 20:12:00
2 1953-04-16 12:00:00 Temperatura -5.2 del 16-04-1953 12:00, Menor que la Mínima 3.8 16-04-1953 12:00 -5.2 -- 3.8 2013-09-11 14:29:00
2 1953-04-27 12:00:00 Temperatura 7.5 del 27-04-1953 11:00, Menor que la Mínima 8.0 27-04-1953 12:00 7.5 -- 8.0 2013-09-12 15:51:00
2 1953-05-13 12:00:00 Temperatura 9.6 del 13-05-1953 12:00, Menor que la Mínima 10.3 13-05-1953 12:00 9.6 -- 10.3 2013-09-23 13:15:00
2 1953-06-03 12:00:00 Temperatura 5.7 del 03-06-1953 11:00, Menor que la Mínima 7.5 03-06-1953 12:00 5.7 -- 7.5 2013-09-25 12:27:00
2 1953-06-05 12:00:00 Temperatura 6.5 del 05-06-1953 11:00, Menor que la Mínima 6.7 05-06-1953 12:00 6.5 -- 6.7 2013-09-25 13:35:00
2 1953-06-11 12:00:00 Temperatura 3.7 del 11-06-1953 12:00, Menor que la Mínima 4.0 11-06-1953 12:00 3.7 -- 4.0 2013-09-25 19:03:00
2 1953-06-26 12:00:00 Temperatura -1.0 del 26-06-1953 12:00, Menor que la Mínima 1.0 26-06-1953 12:00 -1.0 -- 1.0 2013-09-26 17:10:00
2 1953-07-19 12:00:00 Temperatura -1.5 del 19-07-1953 12:00, Menor que la Mínima 1.5 19-07-1953 12:00 -1.5 -- 1.5 2013-10-14 15:56:00
2 1953-07-27 12:00:00 Temperatura 5.6 del 27-07-1953 11:00, Menor que la Mínima 6.0 27-07-1953 12:00 5.6 -- 6.0 2013-10-15 18:56:00
2 1953-07-28 12:00:00 Temperatura 0.0 del 28-07-1953 10:00, Menor que la Mínima 0.4 28-07-1953 12:00 0.0 -- 0.4 2013-10-15 19:19:00
2 1953-08-20 12:00:00 Temperatura 5.5 del 20-08-1953 11:00, Menor que la Mínima 6.0 20-08-1953 12:00 5.5 -- 6.0 2013-10-17 14:55:00
2 1953-11-01 12:00:00 Temperatura 7.8 del 01-11-1953 10:00, Menor que la Mínima 8.5 01-11-1953 12:00 7.8 -- 8.5 2013-10-25 18:05:00
2 1953-11-16 12:00:00 Temperatura 8.7 del 16-11-1953 10:00, Menor que la Mínima 9.8 16-11-1953 12:00 8.7 -- 9.8 2013-10-28 18:17:00
2 1953-11-22 12:00:00 Temperatura 10.7 del 22-11-1953 10:00, Menor que la Mínima 11.0 22-11-1953 12:00 10.7 -- 11.0 2013-10-29 13:57:00
2 1953-11-25 12:00:00 Temperatura 11.0 del 25-11-1953 11:00, Menor que la Mínima 11.5 25-11-1953 12:00 11.0 -- 11.5 2013-10-29 15:58:00
2 1953-11-26 12:00:00 Temperatura 10.8 del 26-11-1953 11:00, Menor que la Mínima 11.0 26-11-1953 12:00 10.8 -- 11.0 2013-10-29 18:49:00
2 1953-12-20 12:00:00 Temperatura 11.9 del 20-12-1953 11:00, Menor que la Mínima 12.0 20-12-1953 12:00 11.9 -- 12.0 2013-11-04 14:35:00
2 1955-08-02 12:00:00 Temperatura 0.4 del 02-08-1955 12:00, Menor que la Mínima 1.5 02-08-1955 12:00 0.4 -- 1.5 2013-05-10 01:45:00
2 1956-01-02 12:00:00 Temperatura 6.3 del 02-01-1956 12:00, Menor que la Mínima 10.0 02-01-1956 12:00 6.3 -- 10.0 2013-05-10 01:45:00
2 1956-05-22 12:00:00 Temperatura 0.8 del 22-05-1956 12:00, Menor que la Mínima 7.5 22-05-1956 12:00 0.8 -- 7.5 2013-05-10 01:45:00
2 1956-06-25 12:00:00 Temperatura -0.6 del 25-06-1956 12:00, Menor que la Mínima 2.0 25-06-1956 12:00 -0.6 -- 2.0 2013-05-10 01:45:00
2 1956-07-24 12:00:00 Temperatura 8.0 del 24-07-1956 12:00, Menor que la Mínima 8.2 24-07-1956 12:00 8.0 -- 8.2 2013-05-10 01:45:00
2 1961-07-07 12:00:00 Temperatura 0.5 del 07-07-1961 12:00, Menor que la Mínima 1.4 07-07-1961 12:00 0.5 -- 1.4 2013-05-10 01:46:00
2 1961-09-09 12:00:00 Temperatura 5.3 del 09-09-1961 12:00, Menor que la Mínima 13.1 09-09-1961 12:00 5.3 -- 13.1 2013-05-10 01:46:00
2 1963-04-18 12:00:00 Temperatura 5.9 del 18-04-1963 12:00, Menor que la Mínima 6.0 18-04-1963 12:00 5.9 -- 6.0 2013-05-10 01:47:00
2 1964-08-21 12:00:00 Temperatura 0.8 del 21-08-1964 12:00, Menor que la Mínima 1.0 21-08-1964 12:00 0.8 -- 1.0 2013-05-10 01:47:00
2 1964-11-03 12:00:00 Temperatura 0.9 del 03-11-1964 12:00, Menor que la Mínima 7.7 03-11-1964 12:00 0.9 -- 7.7 2013-05-10 01:47:00
2 1965-08-19 12:00:00 Temperatura -0.1 del 19-08-1965 12:00, Menor que la Mínima 1.2 19-08-1965 12:00 -0.1 -- 1.2 2013-05-10 01:48:00
2 1965-12-30 12:00:00 Temperatura 11.6 del 30-12-1965 12:00, Menor que la Mínima 11.8 30-12-1965 12:00 11.6 -- 11.8 2013-05-10 01:48:00
2 1966-05-26 12:00:00 Temperatura 7.7 del 26-05-1966 12:00, Menor que la Mínima 8.2 26-05-1966 12:00 7.7 -- 8.2 2013-05-10 01:48:00
2 1966-07-14 12:00:00 Temperatura -0.2 del 14-07-1966 12:00, Menor que la Mínima 0.0 14-07-1966 12:00 -0.2 -- 0.0 2013-05-10 01:48:00
2 1966-08-05 12:00:00 Temperatura -1.2 del 05-08-1966 12:00, Menor que la Mínima 1.8 05-08-1966 12:00 -1.2 -- 1.8 2013-05-10 01:48:00
2 1966-08-07 12:00:00 Temperatura 1.2 del 07-08-1966 12:00, Menor que la Mínima 1.8 07-08-1966 12:00 1.2 -- 1.8 2013-05-10 01:48:00
2 1966-10-11 12:00:00 Temperatura 8.4 del 11-10-1966 12:00, Menor que la Mínima 8.9 11-10-1966 12:00 8.4 -- 8.9 2013-05-10 01:48:00
2 1966-12-04 12:00:00 Temperatura 8.0 del 04-12-1966 12:00, Menor que la Mínima 8.4 04-12-1966 12:00 8.0 -- 8.4 2013-05-10 01:48:00
2 1967-04-07 12:00:00 Temperatura 8.8 del 07-04-1967 12:00, Menor que la Mínima 8.9 07-04-1967 12:00 8.8 -- 8.9 2013-05-10 01:48:00
2 1967-04-08 12:00:00 Temperatura 8.8 del 08-04-1967 12:00, Menor que la Mínima 8.9 08-04-1967 12:00 8.8 -- 8.9 2013-05-10 01:48:00
2 1967-04-20 12:00:00 Temperatura 9.8 del 20-04-1967 12:00, Menor que la Mínima 9.9 20-04-1967 12:00 9.8 -- 9.9 2013-05-10 01:48:00
2 1967-05-13 12:00:00 Temperatura 1.9 del 13-05-1967 12:00, Menor que la Mínima 2.1 13-05-1967 12:00 1.9 -- 2.1 2013-05-10 01:48:00
2 1967-06-27 12:00:00 Temperatura -0.7 del 27-06-1967 12:00, Menor que la Mínima 0.8 27-06-1967 12:00 -0.7 -- 0.8 2013-05-10 01:48:00
2 1967-07-12 12:00:00 Temperatura -1.4 del 12-07-1967 12:00, Menor que la Mínima 2.5 12-07-1967 12:00 -1.4 -- 2.5 2013-05-10 01:48:00
2 1967-08-08 12:00:00 Temperatura 0.2 del 08-08-1967 12:00, Menor que la Mínima 5.2 08-08-1967 12:00 0.2 -- 5.2 2013-05-10 01:48:00
2 1967-11-01 12:00:00 Temperatura 8.8 del 01-11-1967 12:00, Menor que la Mínima 9.0 01-11-1967 12:00 8.8 -- 9.0 2013-05-10 01:48:00
2 1968-08-12 12:00:00 Temperatura 4.8 del 12-08-1968 12:00, Menor que la Mínima 7.8 12-08-1968 12:00 4.8 -- 7.8 2013-05-10 01:48:00
2 1969-05-29 12:00:00 Temperatura 7.3 del 29-05-1969 12:00, Menor que la Mínima 7.5 29-05-1969 12:00 7.3 -- 7.5 2013-05-10 01:49:00
2 1969-06-10 12:00:00 Temperatura 10.4 del 10-06-1969 12:00, Menor que la Mínima 10.9 10-06-1969 12:00 10.4 -- 10.9 2013-05-10 01:49:00
2 1969-07-05 12:00:00 Temperatura 2.2 del 05-07-1969 12:00, Menor que la Mínima 2.3 05-07-1969 12:00 2.2 -- 2.3 2013-05-10 01:49:00
2 1969-07-08 12:00:00 Temperatura -1.8 del 08-07-1969 12:00, Menor que la Mínima 2.5 08-07-1969 12:00 -1.8 -- 2.5 2013-05-10 01:49:00
2 1969-10-01 12:00:00 Temperatura 0.8 del 01-10-1969 12:00, Menor que la Mínima 6.5 01-10-1969 12:00 0.8 -- 6.5 2013-05-10 01:49:00
2 1969-11-06 12:00:00 Temperatura 6.0 del 06-11-1969 12:00, Menor que la Mínima 6.5 06-11-1969 12:00 6.0 -- 6.5 2013-05-10 01:49:00
2 1971-06-21 12:00:00 Temperatura 0.3 del 21-06-1971 12:00, Menor que la Mínima 0.8 21-06-1971 12:00 0.3 -- 0.8 2013-05-10 01:49:00
2 1971-08-02 12:00:00 Temperatura 8.4 del 02-08-1971 12:00, Menor que la Mínima 8.6 02-08-1971 12:00 8.4 -- 8.6 2013-05-10 01:49:00
2 1971-08-12 12:00:00 Temperatura 6.9 del 12-08-1971 12:00, Menor que la Mínima 7.0 12-08-1971 12:00 6.9 -- 7.0 2013-05-10 01:49:00
2 1971-08-14 12:00:00 Temperatura 3.8 del 14-08-1971 12:00, Menor que la Mínima 3.9 14-08-1971 12:00 3.8 -- 3.9 2013-05-10 01:49:00
2 1971-12-05 12:00:00 Temperatura 0.0 del 05-12-1971 12:00, Menor que la Mínima 11.7 05-12-1971 12:00 0.0 -- 11.7 2013-05-10 01:49:00
2 1972-06-30 12:00:00 Temperatura 3.9 del 30-06-1972 12:00, Menor que la Mínima 6.0 30-06-1972 12:00 3.9 -- 6.0 2013-05-10 01:50:00
2 1972-07-18 12:00:00 Temperatura 1.4 del 18-07-1972 12:00, Menor que la Mínima 10.5 18-07-1972 12:00 1.4 -- 10.5 2013-05-10 01:50:00
2 1972-08-15 12:00:00 Temperatura 9.3 del 15-08-1972 12:00, Menor que la Mínima 9.5 15-08-1972 12:00 9.3 -- 9.5 2013-05-10 01:50:00
2 1972-11-09 12:00:00 Temperatura 9.0 del 09-11-1972 11:00, Menor que la Mínima 9.6 09-11-1972 12:00 9.0 -- 9.6 2013-05-10 01:50:00
2 1973-02-15 12:00:00 Temperatura 12.2 del 15-02-1973 11:00, Menor que la Mínima 14.8 15-02-1973 12:00 12.2 -- 14.8 2013-05-10 01:50:00
2 1973-02-22 12:00:00 Temperatura 13.7 del 22-02-1973 12:00, Menor que la Mínima 15.0 22-02-1973 12:00 13.7 -- 15.0 2013-05-10 01:50:00
2 1973-04-20 12:00:00 Temperatura 7.1 del 20-04-1973 12:00, Menor que la Mínima 7.4 20-04-1973 12:00 7.1 -- 7.4 2013-05-10 01:50:00
2 1973-04-24 12:00:00 Temperatura 7.9 del 24-04-1973 12:00, Menor que la Mínima 8.1 24-04-1973 12:00 7.9 -- 8.1 2013-05-10 01:50:00
2 1973-04-26 12:00:00 Temperatura 7.4 del 26-04-1973 12:00, Menor que la Mínima 8.0 26-04-1973 12:00 7.4 -- 8.0 2013-05-10 01:50:00
2 1973-04-30 12:00:00 Temperatura 11.3 del 30-04-1973 12:00, Menor que la Mínima 11.8 30-04-1973 12:00 11.3 -- 11.8 2013-05-10 01:50:00
2 1973-05-02 12:00:00 Temperatura 5.3 del 02-05-1973 12:00, Menor que la Mínima 6.4 02-05-1973 12:00 5.3 -- 6.4 2013-05-10 01:50:00
2 1973-05-04 12:00:00 Temperatura 4.9 del 04-05-1973 12:00, Menor que la Mínima 6.0 04-05-1973 12:00 4.9 -- 6.0 2013-05-10 01:50:00
2 1973-05-05 12:00:00 Temperatura 7.6 del 05-05-1973 12:00, Menor que la Mínima 8.5 05-05-1973 12:00 7.6 -- 8.5 2013-05-10 01:50:00
2 1973-05-07 12:00:00 Temperatura 6.5 del 07-05-1973 12:00, Menor que la Mínima 7.0 07-05-1973 12:00 6.5 -- 7.0 2013-05-10 01:50:00
2 1973-07-11 12:00:00 Temperatura 6.9 del 11-07-1973 12:00, Menor que la Mínima 7.0 11-07-1973 12:00 6.9 -- 7.0 2013-05-10 01:50:00
2 1973-11-03 12:00:00 Temperatura 7.1 del 03-11-1973 11:00, Menor que la Mínima 7.2 03-11-1973 12:00 7.1 -- 7.2 2013-05-10 01:50:00
2 1974-02-20 12:00:00 Temperatura 11.2 del 20-02-1974 11:00, Menor que la Mínima 11.3 20-02-1974 12:00 11.2 -- 11.3 2013-05-10 01:50:00
2 1974-05-07 12:00:00 Temperatura 4.6 del 07-05-1974 12:00, Menor que la Mínima 4.7 07-05-1974 12:00 4.6 -- 4.7 2013-05-10 01:50:00
2 1974-06-12 12:00:00 Temperatura 2.9 del 12-06-1974 12:00, Menor que la Mínima 3.0 12-06-1974 12:00 2.9 -- 3.0 2013-05-10 01:50:00
2 1974-06-20 12:00:00 Temperatura 1.4 del 20-06-1974 12:00, Menor que la Mínima 1.5 20-06-1974 12:00 1.4 -- 1.5 2013-05-10 01:50:00
2 1974-07-02 12:00:00 Temperatura 4.9 del 02-07-1974 12:00, Menor que la Mínima 5.0 02-07-1974 12:00 4.9 -- 5.0 2013-05-10 01:50:00
2 1974-07-15 12:00:00 Temperatura 3.7 del 15-07-1974 12:00, Menor que la Mínima 3.8 15-07-1974 12:00 3.7 -- 3.8 2013-05-10 01:50:00
2 1974-07-16 12:00:00 Temperatura 3.2 del 16-07-1974 12:00, Menor que la Mínima 8.2 16-07-1974 12:00 3.2 -- 8.2 2013-05-10 01:50:00
2 1974-10-26 12:00:00 Temperatura 7.8 del 26-10-1974 11:00, Menor que la Mínima 8.0 26-10-1974 12:00 7.8 -- 8.0 2013-05-10 01:50:00
2 1974-11-02 12:00:00 Temperatura 8.0 del 02-11-1974 11:00, Menor que la Mínima 11.8 02-11-1974 12:00 8.0 -- 11.8 2013-05-10 01:50:00
2 1975-02-04 12:00:00 Temperatura 14.0 del 04-02-1975 11:00, Menor que la Mínima 14.2 04-02-1975 12:00 14.0 -- 14.2 2013-05-10 01:50:00
2 1975-02-17 12:00:00 Temperatura 13.2 del 17-02-1975 11:00, Menor que la Mínima 13.3 17-02-1975 12:00 13.2 -- 13.3 2013-05-10 01:50:00
2 1975-06-04 12:00:00 Temperatura 2.3 del 04-06-1975 12:00, Menor que la Mínima 2.9 04-06-1975 12:00 2.3 -- 2.9 2013-05-10 01:50:00
2 1975-07-24 12:00:00 Temperatura 4.7 del 24-07-1975 12:00, Menor que la Mínima 5.0 24-07-1975 12:00 4.7 -- 5.0 2013-05-10 01:51:00
2 1975-08-02 12:00:00 Temperatura 6.8 del 02-08-1975 12:00, Menor que la Mínima 6.9 02-08-1975 12:00 6.8 -- 6.9 2013-05-10 01:51:00
2 1975-11-22 12:00:00 Temperatura 9.0 del 22-11-1975 11:00, Menor que la Mínima 12.1 22-11-1975 12:00 9.0 -- 12.1 2013-05-10 01:51:00
2 1975-12-28 12:00:00 Temperatura 11.7 del 28-12-1975 11:00, Menor que la Mínima 13.0 28-12-1975 12:00 11.7 -- 13.0 2013-05-10 01:51:00
2 1976-03-08 12:00:00 Temperatura 4.2 del 08-03-1976 12:00, Menor que la Mínima 10.7 08-03-1976 12:00 4.2 -- 10.7 2013-05-10 01:51:00
2 1976-06-26 12:00:00 Temperatura 0.1 del 26-06-1976 12:00, Menor que la Mínima 1.6 26-06-1976 12:00 0.1 -- 1.6 2013-05-10 01:51:00
2 1976-11-15 12:00:00 Temperatura 3.7 del 15-11-1976 12:00, Menor que la Mínima 7.9 15-11-1976 12:00 3.7 -- 7.9 2013-05-10 01:51:00
2 1976-12-15 12:00:00 Temperatura 12.8 del 15-12-1976 11:00, Menor que la Mínima 13.0 15-12-1976 12:00 12.8 -- 13.0 2013-05-10 01:51:00
2 1978-03-25 12:00:00 Temperatura 4.7 del 25-03-1978 12:00, Menor que la Mínima 9.3 25-03-1978 12:00 4.7 -- 9.3 2013-05-10 01:51:00
2 1978-11-17 12:00:00 Temperatura 11.0 del 17-11-1978 11:00, Menor que la Mínima 11.6 17-11-1978 12:00 11.0 -- 11.6 2013-05-10 01:52:00
2 1978-12-17 12:00:00 Temperatura 12.0 del 17-12-1978 10:00, Menor que la Mínima 12.2 17-12-1978 12:00 12.0 -- 12.2 2013-05-10 01:52:00
2 1978-12-18 12:00:00 Temperatura 13.6 del 18-12-1978 11:00, Menor que la Mínima 14.7 18-12-1978 12:00 13.6 -- 14.7 2013-05-10 01:52:00
2 1978-12-29 12:00:00 Temperatura 14.2 del 29-12-1978 10:00, Menor que la Mínima 24.3 29-12-1978 12:00 14.2 -- 24.3 2013-05-10 01:52:00
2 1979-01-03 12:00:00 Temperatura 15.2 del 03-01-1979 10:00, Menor que la Mínima 15.3 03-01-1979 12:00 15.2 -- 15.3 2013-05-10 01:52:00
2 1979-01-09 12:00:00 Temperatura 15.0 del 09-01-1979 10:00, Menor que la Mínima 15.1 09-01-1979 12:00 15.0 -- 15.1 2013-05-10 01:52:00
2 1979-01-12 12:00:00 Temperatura 11.8 del 12-01-1979 11:00, Menor que la Mínima 14.3 12-01-1979 12:00 11.8 -- 14.3 2013-05-10 01:52:00
2 1979-01-30 12:00:00 Temperatura 6.2 del 30-01-1979 11:00, Menor que la Mínima 14.2 30-01-1979 12:00 6.2 -- 14.2 2013-05-10 01:52:00
2 1979-06-24 12:00:00 Temperatura -0.4 del 24-06-1979 12:00, Menor que la Mínima -0.3 24-06-1979 12:00 -0.4 -- -0.3 2013-05-10 01:52:00
2 1979-08-11 12:00:00 Temperatura 5.3 del 11-08-1979 12:00, Menor que la Mínima 5.4 11-08-1979 12:00 5.3 -- 5.4 2013-05-10 01:52:00
2 1979-09-02 12:00:00 Temperatura 1.9 del 02-09-1979 12:00, Menor que la Mínima 2.4 02-09-1979 12:00 1.9 -- 2.4 2013-05-10 01:52:00
2 1979-11-16 12:00:00 Temperatura 13.4 del 16-11-1979 12:00, Menor que la Mínima 13.7 16-11-1979 12:00 13.4 -- 13.7 2013-05-10 01:52:00
2 1979-11-27 12:00:00 Temperatura 13.2 del 27-11-1979 11:00, Menor que la Mínima 13.3 27-11-1979 12:00 13.2 -- 13.3 2013-05-10 01:52:00
2 1980-10-28 12:00:00 Temperatura 10.1 del 28-10-1980 10:00, Menor que la Mínima 10.3 28-10-1980 12:00 10.1 -- 10.3 2013-05-10 01:52:00
2 1981-01-27 12:00:00 Temperatura 15.4 del 27-01-1981 11:00, Menor que la Mínima 15.8 27-01-1981 12:00 15.4 -- 15.8 2013-05-10 01:52:00
2 1981-10-23 12:00:00 Temperatura 11.2 del 23-10-1981 11:00, Menor que la Mínima 11.3 23-10-1981 12:00 11.2 -- 11.3 2013-05-10 01:52:00
2 1982-01-06 12:00:00 Temperatura 14.4 del 06-01-1982 10:00, Menor que la Mínima 14.8 06-01-1982 12:00 14.4 -- 14.8 2013-05-10 01:53:00
2 1982-02-17 12:00:00 Temperatura 13.4 del 17-02-1982 11:00, Menor que la Mínima 13.6 17-02-1982 12:00 13.4 -- 13.6 2013-05-10 01:53:00
2 1982-02-19 12:00:00 Temperatura 11.6 del 19-02-1982 11:00, Menor que la Mínima 11.8 19-02-1982 12:00 11.6 -- 11.8 2013-05-10 01:53:00
2 1982-02-22 12:00:00 Temperatura 10.6 del 22-02-1982 11:00, Menor que la Mínima 10.8 22-02-1982 12:00 10.6 -- 10.8 2013-05-10 01:53:00
2 1982-02-23 12:00:00 Temperatura 12.8 del 23-02-1982 11:00, Menor que la Mínima 12.9 23-02-1982 12:00 12.8 -- 12.9 2013-05-10 01:53:00
2 1982-02-27 12:00:00 Temperatura 13.0 del 27-02-1982 11:00, Menor que la Mínima 13.7 27-02-1982 12:00 13.0 -- 13.7 2013-05-10 01:53:00
2 1983-01-11 12:00:00 Temperatura 16.4 del 11-01-1983 11:00, Menor que la Mínima 16.6 11-01-1983 12:00 16.4 -- 16.6 2013-05-10 01:53:00
2 1983-02-10 12:00:00 Temperatura 14.6 del 10-02-1983 11:00, Menor que la Mínima 16.5 10-02-1983 12:00 14.6 -- 16.5 2013-05-10 01:53:00
2 1983-03-16 12:00:00 Temperatura 9.1 del 16-03-1983 11:00, Menor que la Mínima 9.4 16-03-1983 12:00 9.1 -- 9.4 2013-05-10 01:53:00
2 1983-10-13 12:00:00 Temperatura 9.4 del 13-10-1983 11:00, Menor que la Mínima 9.6 13-10-1983 12:00 9.4 -- 9.6 2013-05-10 01:53:00
2 1983-10-16 12:00:00 Temperatura 0.6 del 16-10-1983 11:00, Menor que la Mínima 9.4 16-10-1983 12:00 0.6 -- 9.4 2013-05-10 01:53:00
2 1984-03-03 12:00:00 Temperatura 13.0 del 03-03-1984 11:00, Menor que la Mínima 13.2 03-03-1984 12:00 13.0 -- 13.2 2013-05-10 01:53:00
2 1984-03-08 12:00:00 Temperatura 10.2 del 08-03-1984 11:00, Menor que la Mínima 10.4 08-03-1984 12:00 10.2 -- 10.4 2013-05-10 01:53:00
2 1984-11-14 12:00:00 Temperatura 8.8 del 14-11-1984 10:00, Menor que la Mínima 9.0 14-11-1984 12:00 8.8 -- 9.0 2013-05-10 01:53:00
2 1984-11-18 12:00:00 Temperatura 11.5 del 18-11-1984 10:00, Menor que la Mínima 11.6 18-11-1984 12:00 11.5 -- 11.6 2013-05-10 01:53:00
2 1984-11-19 12:00:00 Temperatura 9.2 del 19-11-1984 10:00, Menor que la Mínima 9.4 19-11-1984 12:00 9.2 -- 9.4 2013-05-10 01:53:00
2 1984-11-20 12:00:00 Temperatura 10.4 del 20-11-1984 11:00, Menor que la Mínima 11.1 20-11-1984 12:00 10.4 -- 11.1 2013-05-10 01:53:00
2 1984-11-21 12:00:00 Temperatura 8.7 del 21-11-1984 10:00, Menor que la Mínima 8.8 21-11-1984 12:00 8.7 -- 8.8 2013-05-10 01:53:00
2 1984-11-27 12:00:00 Temperatura 12.3 del 27-11-1984 11:00, Menor que la Mínima 12.6 27-11-1984 12:00 12.3 -- 12.6 2013-05-10 01:53:00
2 1984-12-04 12:00:00 Temperatura 14.8 del 04-12-1984 10:00, Menor que la Mínima 15.0 04-12-1984 12:00 14.8 -- 15.0 2013-05-10 01:53:00
2 1984-12-12 12:00:00 Temperatura 12.0 del 12-12-1984 10:00, Menor que la Mínima 12.2 12-12-1984 12:00 12.0 -- 12.2 2013-05-10 01:53:00
2 1984-12-17 12:00:00 Temperatura 13.6 del 17-12-1984 10:00, Menor que la Mínima 13.8 17-12-1984 12:00 13.6 -- 13.8 2013-05-10 01:53:00
2 1985-03-04 12:00:00 Temperatura 12.4 del 04-03-1985 11:00, Menor que la Mínima 12.6 04-03-1985 12:00 12.4 -- 12.6 2013-05-10 01:54:00
2 1985-05-18 12:00:00 Temperatura 0.0 del 18-05-1985 12:00, Menor que la Mínima 5.4 18-05-1985 12:00 0.0 -- 5.4 2013-05-10 01:54:00
2 1985-08-05 12:00:00 Temperatura 0.6 del 05-08-1985 12:00, Menor que la Mínima 5.7 05-08-1985 12:00 0.6 -- 5.7 2013-05-10 01:54:00
2 1985-11-11 12:00:00 Temperatura 1.8 del 11-11-1985 11:00, Menor que la Mínima 10.6 11-11-1985 12:00 1.8 -- 10.6 2013-05-10 01:54:00
2 1986-02-17 12:00:00 Temperatura 12.8 del 17-02-1986 11:00, Menor que la Mínima 13.0 17-02-1986 12:00 12.8 -- 13.0 2013-05-10 01:54:00
2 1986-11-20 12:00:00 Temperatura 13.8 del 20-11-1986 10:00, Menor que la Mínima 14.0 20-11-1986 12:00 13.8 -- 14.0 2013-05-10 01:54:00
2 1986-11-29 12:00:00 Temperatura 12.6 del 29-11-1986 11:00, Menor que la Mínima 12.8 29-11-1986 12:00 12.6 -- 12.8 2013-05-10 01:54:00
2 1987-02-13 12:00:00 Temperatura 16.2 del 13-02-1987 11:00, Menor que la Mínima 16.4 13-02-1987 12:00 16.2 -- 16.4 2013-05-10 01:54:00
2 1987-03-23 12:00:00 Temperatura 13.4 del 23-03-1987 11:00, Menor que la Mínima 13.6 23-03-1987 12:00 13.4 -- 13.6 2013-05-10 01:54:00
2 1987-10-24 12:00:00 Temperatura 11.0 del 24-10-1987 11:00, Menor que la Mínima 11.4 24-10-1987 12:00 11.0 -- 11.4 2013-05-10 01:54:00
2 1987-11-04 12:00:00 Temperatura 9.7 del 04-11-1987 11:00, Menor que la Mínima 9.9 04-11-1987 12:00 9.7 -- 9.9 2013-05-10 01:54:00
2 1988-02-10 12:00:00 Temperatura 13.3 del 10-02-1988 11:00, Menor que la Mínima 13.9 10-02-1988 12:00 13.3 -- 13.9 2013-05-10 01:54:00
2 1988-08-10 12:00:00 Temperatura 2.6 del 10-08-1988 11:00, Menor que la Mínima 3.0 10-08-1988 12:00 2.6 -- 3.0 2013-05-10 01:55:00
2 1990-03-11 12:00:00 Temperatura 11.0 del 11-03-1990 11:00, Menor que la Mínima 11.6 11-03-1990 12:00 11.0 -- 11.6 2013-05-10 01:55:00
2 1990-11-24 12:00:00 Temperatura 4.2 del 24-11-1990 10:00, Menor que la Mínima 13.2 24-11-1990 12:00 4.2 -- 13.2 2013-05-10 01:55:00
Errores del Nivel 444
Informe generado el 05-03-2024 11:15
Requerimiento: RE6001